LS1329 / G-GDFX 7700 Squawk Report (25th of May, 2022)

Aircraft B738 Reg No. G-GDFX Age 22 years old
Model 737 Jet engines 2 First flight 22-02-00
Registered 16-05-14 Rollout N/A Delivered 03-04-00
Construction No. 27987 Line No. 0499 Series 8K5
ADSHEX 406A62 Airline name Jet2 Owner TUI AG
Airfield based Leeds-Bradford~Yorks~G First tracked N/A

Flight history for G-GDFX

Route Flight No Date Playback
Makedonia (SKG) - Leeds Bradford (LBA) LS262 2022-06-28 12:15:00
Leeds Bradford (LBA) - Makedonia (SKG) LS261 2022-06-28 08:47:00
Pafos Intl (PFO) - Leeds Bradford (LBA) LS406 2022-06-28 05:29:00
Leeds Bradford (LBA) - Pafos Intl (PFO) LS405 2022-06-27 19:32:00
Malaga (AGP) - Leeds Bradford (LBA) LS186 2022-06-27 15:20:00
Edinburgh (EDI) - Malaga (AGP) LS4069 2022-06-27 11:21:00
Pafos Intl (PFO) - Edinburgh (EDI) LS798 2022-06-27 01:06:00
Edinburgh (EDI) - Pafos Intl (PFO) LS797 2022-06-26 18:30:00
Son Sant Joan (PMI) - Edinburgh (EDI) LS718 2022-06-26 14:02:00
Edinburgh (EDI) - Son Sant Joan (PMI) LS717 2022-06-26 10:33:00
Dalaman (DLM) - Edinburgh (EDI) LS712 2022-06-26 03:13:00
Edinburgh (EDI) - Dalaman (DLM) LS711 2022-06-25 22:56:00
Capodichino (NAP) - Edinburgh (EDI) LS724 2022-06-25 14:17:00
Edinburgh (EDI) - Capodichino (NAP) LS723 2022-06-25 11:21:00
Antalya (AYT) - Edinburgh (EDI) LS710 2022-06-25 02:26:00
Edinburgh (EDI) - Antalya (AYT) LS709 2022-06-24 20:25:00
Menorca (MAH) - Edinburgh (EDI) LS878 2022-06-24 13:43:00
Edinburgh (EDI) - Menorca (MAH) LS877 2022-06-24 09:25:00
Arrecife Airport (ACE) - Edinburgh (EDI) LS706 2022-06-22 00:17:00
Edinburgh (EDI) - Arrecife Airport (ACE) LS705 2022-06-21 20:05:00
Time Lat Lon Altitude Heading Speed Vertical Rate
2022-05-25 08:32:40 GMT 52.314915 4.773736 0 219 7 0
2022-05-25 08:32:35 GMT 52.315041 4.773922 0 219 9 0
2022-05-25 08:32:26 GMT 52.315430 4.774462 0 216 11 0
2022-05-25 08:32:15 GMT 52.315777 4.774835 0 205 9 0
2022-05-25 08:32:03 GMT 52.316563 4.775276 0 213 20 0
2022-05-25 08:31:54 GMT 52.317116 4.776345 0 236 29 0
2022-05-25 08:31:40 GMT 52.317822 4.780426 0 267 56 0
2022-05-25 08:31:29 GMT 52.318104 4.789019 -25 267 147 -64
2022-05-25 08:31:24 GMT 52.318291 4.794826 75 267 158 -704
2022-05-25 08:31:20 GMT 52.318497 4.799576 75 267 156 -832
2022-05-25 08:31:19 GMT 52.318497 4.800644 75 267 156 -832
2022-05-25 08:31:17 GMT 52.318634 4.803848 150 267 152 -704
2022-05-25 08:31:14 GMT 52.318771 4.806595 150 267 152 -704
2022-05-25 08:31:12 GMT 52.318817 4.808350 175 267 152 -832
2022-05-25 08:31:11 GMT 52.318909 4.810410 200 267 152 -832
2022-05-25 08:31:09 GMT 52.318954 4.812851 225 268 151 -704
2022-05-25 08:31:07 GMT 52.319000 4.814682 250 268 151 -704
2022-05-25 08:31:04 GMT 52.319130 4.819859 300 268 149 -768
2022-05-25 08:31:01 GMT 52.319183 4.821625 350 268 148 -896
2022-05-25 08:30:59 GMT 52.319267 4.823940 375 267 146 -832
2022-05-25 08:30:57 GMT 52.319321 4.826202 450 267 146 -768
2022-05-25 08:30:55 GMT 52.319408 4.828256 450 267 146 -832
2022-05-25 08:30:53 GMT 52.319500 4.830767 450 268 146 -832
2022-05-25 08:30:52 GMT 52.319595 4.832993 475 267 146 -768
2022-05-25 08:30:50 GMT 52.319641 4.834061 475 267 146 -768
2022-05-25 08:30:48 GMT 52.319733 4.837494 525 268 147 -768
2022-05-25 08:30:46 GMT 52.319778 4.838638 525 268 147 -768
2022-05-25 08:30:45 GMT 52.319824 4.839630 550 268 147 -704
2022-05-25 08:30:43 GMT 52.319870 4.842072 575 268 147 -704
2022-05-25 08:30:41 GMT 52.319916 4.844360 600 267 146 -768
2022-05-25 08:30:40 GMT 52.319962 4.845276 600 266 145 -768
2022-05-25 08:30:38 GMT 52.320007 4.846802 625 266 144 -768
2022-05-25 08:30:37 GMT 52.320099 4.848404 650 267 144 -704
2022-05-25 08:30:36 GMT 52.320152 4.849444 650 267 144 -704
2022-05-25 08:30:34 GMT 52.320248 4.851719 675 267 145 -832
2022-05-25 08:30:33 GMT 52.320293 4.852818 700 267 145 -832
2022-05-25 08:30:32 GMT 52.320339 4.853995 700 267 145 -832
2022-05-25 08:30:31 GMT 52.320385 4.855094 725 267 145 -832
2022-05-25 08:30:28 GMT 52.320480 4.857683 750 267 146 -768
2022-05-25 08:30:27 GMT 52.320572 4.860665 800 267 145 -832
2022-05-25 08:30:24 GMT 52.320602 4.862289 800 267 145 -832
2022-05-25 08:30:23 GMT 52.320618 4.863334 825 267 145 -768
2022-05-25 08:30:22 GMT 52.320713 4.865374 850 268 144 -832
2022-05-25 08:30:20 GMT 52.320831 4.869766 900 269 145 -896
2022-05-25 08:30:18 GMT 52.320831 4.869766 900 269 146 -896
2022-05-25 08:30:17 GMT 52.320896 4.871495 925 268 147 -896
2022-05-25 08:30:15 GMT 52.320896 4.873064 950 268 148 -960
2022-05-25 08:30:14 GMT 52.320946 4.873849 975 268 148 -960
2022-05-25 08:30:13 GMT 52.321014 4.876404 975 268 150 -768
2022-05-25 08:30:11 GMT 52.321037 4.877066 1,000 268 150 -704
2022-05-25 08:30:10 GMT 52.321083 4.878714 1,000 268 151 -704
2022-05-25 08:30:08 GMT 52.321133 4.880598 1,025 268 153 -896
2022-05-25 08:30:06 GMT 52.321178 4.883109 1,075 268 153 -1088
2022-05-25 08:30:04 GMT 52.321243 4.885483 1,100 267 152 -960
2022-05-25 08:30:03 GMT 52.321289 4.886627 1,125 267 151 -896
2022-05-25 08:30:02 GMT 52.321365 4.887739 1,150 267 149 -832
2022-05-25 08:30:01 GMT 52.321457 4.890564 1,175 267 147 -768
2022-05-25 08:29:58 GMT 52.321457 4.891035 1,175 267 147 -704
2022-05-25 08:29:57 GMT 52.321548 4.893703 1,200 267 146 -640
2022-05-25 08:29:55 GMT 52.321594 4.894802 1,225 267 146 -640
2022-05-25 08:29:54 GMT 52.321655 4.895859 1,225 267 146 -512
2022-05-25 08:29:52 GMT 52.321701 4.898071 1,250 267 146 -640
2022-05-25 08:29:51 GMT 52.321735 4.899196 1,250 267 145 -640
2022-05-25 08:29:50 GMT 52.321781 4.900295 1,275 267 145 -640
2022-05-25 08:29:49 GMT 52.321930 4.903564 1,300 267 146 -704
2022-05-25 08:29:47 GMT 52.321930 4.903564 1,300 267 146 -768
2022-05-25 08:29:46 GMT 52.321968 4.905003 1,325 267 146 -960
2022-05-25 08:29:45 GMT 52.322021 4.906311 1,350 267 146 -960
2022-05-25 08:29:44 GMT 52.322063 4.907357 1,350 266 147 -960
2022-05-25 08:29:43 GMT 52.322155 4.909633 1,375 267 146 -960
2022-05-25 08:29:41 GMT 52.322201 4.910967 1,400 267 146 -960
2022-05-25 08:29:39 GMT 52.322296 4.912949 1,425 267 145 -1088
2022-05-25 08:29:38 GMT 52.322342 4.914185 1,450 267 145 -1024
2022-05-25 08:29:37 GMT 52.322388 4.916382 1,475 268 146 -960
2022-05-25 08:29:35 GMT 52.322433 4.917221 1,500 268 146 -896
2022-05-25 08:29:34 GMT 52.322479 4.918289 1,500 268 147 -896
2022-05-25 08:29:33 GMT 52.322529 4.921012 1,550 268 149 -896
2022-05-25 08:29:30 GMT 52.322575 4.922817 1,575 269 152 -768
2022-05-25 08:29:28 GMT 52.322662 4.925537 1,600 268 153 -640
2022-05-25 08:29:27 GMT 52.322662 4.926682 1,600 267 154 -704
2022-05-25 08:29:26 GMT 52.322754 4.928513 1,625 267 155 -768
2022-05-25 08:29:24 GMT 52.322800 4.929810 1,650 267 155 -704
2022-05-25 08:29:23 GMT 52.322845 4.931030 1,650 267 155 -768
2022-05-25 08:29:22 GMT 52.322937 4.933472 1,675 267 155 -704
2022-05-25 08:29:19 GMT 52.322994 4.935686 1,700 267 155 -704
2022-05-25 08:29:17 GMT 52.323074 4.938049 1,725 268 153 -704
2022-05-25 08:29:16 GMT 52.323132 4.939532 1,750 268 153 -640
2022-05-25 08:29:14 GMT 52.323177 4.941493 1,775 267 152 -576
2022-05-25 08:29:13 GMT 52.323212 4.942551 1,775 267 152 -704
2022-05-25 08:29:11 GMT 52.323303 4.945374 1,800 267 152 -768
2022-05-25 08:29:08 GMT 52.323460 4.948792 1,850 267 152 -768
2022-05-25 08:29:07 GMT 52.323460 4.949733 1,850 267 152 -768
2022-05-25 08:29:04 GMT 52.323624 4.954071 1,900 267 152 -640
2022-05-25 08:29:02 GMT 52.323692 4.955697 1,900 267 152 -640
2022-05-25 08:29:00 GMT 52.323784 4.957502 1,925 267 152 -768
2022-05-25 08:28:59 GMT 52.323807 4.958344 1,950 268 152 -832
2022-05-25 08:28:58 GMT 52.323853 4.959564 1,950 268 152 -832
2022-05-25 08:28:56 GMT 52.323898 4.962158 1,950 267 152 -768
2022-05-25 08:28:55 GMT 52.323925 4.963231 2,000 268 152 -896
2022-05-25 08:28:54 GMT 52.324017 4.965585 2,025 268 153 -960
2022-05-25 08:28:52 GMT 52.324036 4.966812 2,050 268 153 -1088
2022-05-25 08:28:51 GMT 52.324108 4.967939 2,050 268 153 -1152
2022-05-25 08:28:49 GMT 52.324158 4.970293 2,100 267 154 -1088
2022-05-25 08:28:47 GMT 52.324310 4.974594 2,150 267 155 -1024
2022-05-25 08:28:45 GMT 52.324310 4.974594 2,150 268 155 -1024
2022-05-25 08:28:44 GMT 52.324356 4.975739 2,175 268 156 -1024
2022-05-25 08:28:42 GMT 52.324448 4.978256 2,200 268 157 -960
2022-05-25 08:28:40 GMT 52.324528 4.980966 2,250 268 157 -960
2022-05-25 08:28:39 GMT 52.324585 4.983063 2,275 268 158 -896
2022-05-25 08:28:37 GMT 52.324623 4.984419 2,275 268 159 -896
2022-05-25 08:28:35 GMT 52.324669 4.986930 2,325 267 160 -832
2022-05-25 08:28:33 GMT 52.324768 4.989471 2,350 267 162 -704
2022-05-25 08:28:32 GMT 52.324860 4.991837 2,375 267 163 -704
2022-05-25 08:28:30 GMT 52.324905 4.993057 2,375 267 163 -704
2022-05-25 08:28:29 GMT 52.324947 4.994463 2,400 267 163 -704
2022-05-25 08:28:27 GMT 52.325043 4.996872 2,425 268 162 -704
2022-05-25 08:28:26 GMT 52.325089 4.998073 2,425 268 161 -768
2022-05-25 08:28:25 GMT 52.325089 4.999250 2,450 268 160 -704
2022-05-25 08:28:23 GMT 52.325180 5.001840 2,475 267 158 -576
2022-05-25 08:28:21 GMT 52.325275 5.004586 2,500 267 157 -576
2022-05-25 08:28:18 GMT 52.325363 5.006332 2,500 267 156 -704
2022-05-25 08:28:17 GMT 52.325455 5.009308 2,550 267 156 -896
2022-05-25 08:28:14 GMT 52.325645 5.014474 2,600 267 157 -768
2022-05-25 08:28:12 GMT 52.325645 5.014474 2,600 267 157 -768
2022-05-25 08:28:11 GMT 52.325691 5.015651 2,600 267 157 -704
2022-05-25 08:28:10 GMT 52.325787 5.018162 2,625 267 158 -640
2022-05-25 08:28:08 GMT 52.325821 5.019226 2,650 267 159 -640
2022-05-25 08:28:07 GMT 52.325878 5.021380 2,675 267 160 -576
2022-05-25 08:28:05 GMT 52.325958 5.022964 2,675 267 160 -576
2022-05-25 08:28:04 GMT 52.326004 5.024185 2,675 267 160 -576
2022-05-25 08:28:01 GMT 52.326111 5.027815 2,725 268 162 -576
2022-05-25 08:28:00 GMT 52.326157 5.028992 2,725 268 162 -576
2022-05-25 08:27:58 GMT 52.326233 5.031433 2,750 268 162 -512
2022-05-25 08:27:57 GMT 52.326233 5.032654 2,750 268 163 -448
2022-05-25 08:27:56 GMT 52.326370 5.036469 2,775 268 164 -256
2022-05-25 08:27:54 GMT 52.326370 5.036469 2,775 267 165 -128
2022-05-25 08:27:53 GMT 52.326370 5.037918 2,775 268 166 -64
2022-05-25 08:27:51 GMT 52.326416 5.039902 2,775 268 167 -64
2022-05-25 08:27:50 GMT 52.326508 5.042496 2,775 269 168 -64
2022-05-25 08:27:48 GMT 52.326508 5.043488 2,775 269 169 -64
2022-05-25 08:27:47 GMT 52.326508 5.044785 2,775 270 169 -64
2022-05-25 08:27:44 GMT 52.326508 5.048523 2,775 272 171 -128
2022-05-25 08:27:41 GMT 52.326370 5.053940 2,800 277 173 -192
2022-05-25 08:27:39 GMT 52.326252 5.055359 2,800 278 174 -256
2022-05-25 08:27:38 GMT 52.326141 5.056763 2,800 278 174 -256
2022-05-25 08:27:36 GMT 52.325912 5.059280 2,825 281 175 -320
2022-05-25 08:27:34 GMT 52.325645 5.061872 2,825 282 177 -256
2022-05-25 08:27:32 GMT 52.325272 5.064392 2,825 284 183 0
2022-05-25 08:27:31 GMT 52.325089 5.065717 2,825 284 183 0
2022-05-25 08:27:30 GMT 52.324722 5.068207 2,825 285 184 0
2022-05-25 08:27:28 GMT 52.324482 5.069563 2,825 286 185 0
2022-05-25 08:27:27 GMT 52.324295 5.070897 2,825 287 187 64
2022-05-25 08:27:24 GMT 52.323414 5.075370 2,800 293 193 256
2022-05-25 08:27:22 GMT 52.322342 5.079293 2,800 298 197 192
2022-05-25 08:27:21 GMT 52.322342 5.079293 2,800 298 197 192
2022-05-25 08:27:20 GMT 52.321922 5.080784 2,800 298 198 128
2022-05-25 08:27:17 GMT 52.320663 5.084630 2,800 298 200 192
2022-05-25 08:27:16 GMT 52.320152 5.086199 2,800 298 200 256
2022-05-25 08:27:14 GMT 52.319458 5.088348 2,800 298 200 256
2022-05-25 08:27:13 GMT 52.318989 5.089887 2,800 298 201 256
2022-05-25 08:27:12 GMT 52.318542 5.091324 2,775 298 201 256
2022-05-25 08:27:11 GMT 52.317444 5.094757 2,775 298 201 256
2022-05-25 08:27:08 GMT 52.316803 5.096741 2,775 297 203 192
2022-05-25 08:27:05 GMT 52.315498 5.101031 2,750 297 204 256
2022-05-25 08:27:04 GMT 52.314972 5.102692 2,750 297 205 320
2022-05-25 08:27:02 GMT 52.314240 5.105033 2,750 297 207 256
2022-05-25 08:27:00 GMT 52.313358 5.107936 2,750 297 207 192
2022-05-25 08:26:58 GMT 52.312500 5.110779 2,725 299 211 -128
2022-05-25 08:26:56 GMT 52.311634 5.113586 2,725 299 211 -128
2022-05-25 08:26:54 GMT 52.310749 5.116411 2,750 299 211 -192
2022-05-25 08:26:52 GMT 52.310051 5.118530 2,725 301 213 -512
2022-05-25 08:26:50 GMT 52.308792 5.121905 2,750 303 214 -576
2022-05-25 08:26:49 GMT 52.308331 5.123003 2,750 306 218 -512
2022-05-25 08:26:48 GMT 52.307632 5.124651 2,775 310 221 -384
2022-05-25 08:26:46 GMT 52.304947 5.129700 2,800 314 225 -256
2022-05-25 08:26:44 GMT 52.304947 5.129700 2,800 316 227 -192
2022-05-25 08:26:42 GMT 52.303440 5.132106 2,800 321 233 -256
2022-05-25 08:26:40 GMT 52.302555 5.133362 2,825 321 233 -256
2022-05-25 08:26:38 GMT 52.299065 5.137992 2,825 322 238 -384
2022-05-25 08:26:35 GMT 52.296112 5.141754 2,850 322 245 -448
2022-05-25 08:26:32 GMT 52.292999 5.145721 2,875 323 245 -384
2022-05-25 08:26:30 GMT 52.292999 5.145721 2,875 323 247 -384
2022-05-25 08:26:28 GMT 52.291626 5.147400 2,875 323 248 -384
2022-05-25 08:26:27 GMT 52.290894 5.148392 2,900 323 250 -320
2022-05-25 08:26:25 GMT 52.288872 5.150940 2,900 323 253 -320
2022-05-25 08:26:24 GMT 52.288055 5.151978 2,900 323 255 -320
2022-05-25 08:26:22 GMT 52.286362 5.154114 2,900 323 256 -320
2022-05-25 08:26:20 GMT 52.283340 5.157928 2,925 323 260 -320
2022-05-25 08:26:18 GMT 52.282494 5.159023 2,925 322 262 -448
2022-05-25 08:26:16 GMT 52.280769 5.161220 2,950 322 264 -448
2022-05-25 08:26:15 GMT 52.279697 5.162554 2,950 322 269 -384
2022-05-25 08:26:14 GMT 52.277847 5.164871 2,975 322 269 -384
2022-05-25 08:26:12 GMT 52.276794 5.166245 2,975 322 272 -320
2022-05-25 08:26:10 GMT 52.275009 5.168533 2,975 323 273 -320
2022-05-25 08:26:09 GMT 52.271393 5.173111 3,000 323 277 -448
2022-05-25 08:26:07 GMT 52.271393 5.173111 3,000 322 279 -640
2022-05-25 08:26:05 GMT 52.269562 5.175476 3,025 322 280 -704
2022-05-25 08:26:03 GMT 52.266586 5.179291 3,075 323 284 -1280
2022-05-25 08:26:00 GMT 52.264709 5.181656 3,125 322 285 -1472
2022-05-25 08:25:59 GMT 52.263268 5.183507 3,150 322 287 -1536
2022-05-25 08:25:58 GMT 52.261822 5.185390 3,200 322 287 -1600
2022-05-25 08:25:56 GMT 52.258984 5.188921 3,275 323 289 -1664
2022-05-25 08:25:55 GMT 52.258984 5.188921 3,275 323 289 -1728
2022-05-25 08:25:53 GMT 52.256748 5.191746 3,325 323 291 -1728
2022-05-25 08:25:52 GMT 52.256241 5.192490 3,375 323 291 -1792
2022-05-25 08:25:51 GMT 52.253677 5.195670 3,375 323 292 -1792
2022-05-25 08:25:49 GMT 52.252605 5.197083 3,500 323 294 -1920
2022-05-25 08:25:47 GMT 52.249924 5.200424 3,525 323 295 -2048
2022-05-25 08:25:46 GMT 52.249302 5.201242 3,550 323 295 -2368
2022-05-25 08:25:44 GMT 52.246693 5.204538 3,650 323 295 -2432
2022-05-25 08:25:43 GMT 52.245949 5.205479 3,675 323 296 -2560
2022-05-25 08:25:42 GMT 52.243652 5.208359 3,775 323 297 -2752
2022-05-25 08:25:39 GMT 52.242130 5.210266 3,825 323 297 -2816
2022-05-25 08:25:38 GMT 52.240952 5.211792 3,875 323 297 -2752
2022-05-25 08:25:37 GMT 52.239662 5.213484 3,925 323 297 -2752
2022-05-25 08:25:36 GMT 52.238548 5.214818 3,975 323 297 -2688
2022-05-25 08:25:34 GMT 52.236374 5.217590 4,075 323 298 -2624
2022-05-25 08:25:32 GMT 52.234310 5.220154 4,125 323 298 -2624
2022-05-25 08:25:31 GMT 52.233353 5.221405 4,200 323 298 -2560
2022-05-25 08:25:30 GMT 52.232029 5.223057 4,225 323 298 -2560
2022-05-25 08:25:29 GMT 52.230835 5.224609 4,275 323 300 -2496
2022-05-25 08:25:27 GMT 52.228630 5.227373 4,375 323 300 -2560
2022-05-25 08:25:26 GMT 52.227562 5.228786 4,400 323 300 -2560
2022-05-25 08:25:25 GMT 52.226444 5.230120 4,450 323 300 -2560
2022-05-25 08:25:23 GMT 52.224243 5.232925 4,550 323 301 -2560
2022-05-25 08:25:22 GMT 52.223145 5.234299 4,575 322 302 -2560
2022-05-25 08:25:20 GMT 52.220951 5.237104 4,675 323 302 -2496
2022-05-25 08:25:19 GMT 52.219833 5.238517 4,700 323 302 -2496
2022-05-25 08:25:18 GMT 52.218613 5.240021 4,750 322 303 -2496
2022-05-25 08:25:17 GMT 52.216324 5.242996 4,850 322 304 -2496
2022-05-25 08:25:15 GMT 52.215317 5.244245 4,875 322 304 -2560
2022-05-25 08:25:14 GMT 52.214340 5.245579 4,925 322 304 -2560
2022-05-25 08:25:12 GMT 52.211872 5.248640 5,025 322 305 -2560
2022-05-25 08:25:11 GMT 52.210896 5.249974 5,050 322 306 -2560
2022-05-25 08:25:10 GMT 52.208473 5.253113 5,150 322 306 -2560
2022-05-25 08:25:08 GMT 52.207218 5.254682 5,200 322 306 -2496
2022-05-25 08:25:07 GMT 52.206146 5.256095 5,225 322 307 -2432
2022-05-25 08:25:06 GMT 52.204147 5.258713 5,300 322 307 -2304
2022-05-25 08:25:04 GMT 52.202888 5.260254 5,350 322 308 -2304
2022-05-25 08:25:03 GMT 52.201813 5.261765 5,400 322 308 -2304
2022-05-25 08:25:01 GMT 52.199677 5.264491 5,475 322 308 -2304
2022-05-25 08:25:00 GMT 52.198425 5.266037 5,500 322 309 -2368
2022-05-25 08:24:59 GMT 52.195999 5.269200 5,600 322 309 -2496
2022-05-25 08:24:56 GMT 52.194042 5.271633 5,675 322 309 -2688
2022-05-25 08:24:54 GMT 52.191811 5.274536 5,800 323 309 -2688
2022-05-25 08:24:52 GMT 52.189545 5.277405 5,850 323 309 -2496
2022-05-25 08:24:49 GMT 52.186066 5.281830 5,950 323 310 -1408
2022-05-25 08:24:48 GMT 52.185059 5.283090 5,975 323 311 -1024
2022-05-25 08:24:46 GMT 52.182770 5.285950 6,000 323 313 -448
2022-05-25 08:24:45 GMT 52.181522 5.287563 6,000 323 315 -256
2022-05-25 08:24:44 GMT 52.180344 5.289001 6,000 323 316 0
2022-05-25 08:24:43 GMT 52.177006 5.293213 6,000 323 317 64
2022-05-25 08:24:41 GMT 52.177006 5.293213 6,000 323 318 64
2022-05-25 08:24:39 GMT 52.174770 5.295959 6,000 323 319 64
2022-05-25 08:24:38 GMT 52.173515 5.297607 6,000 323 320 0
2022-05-25 08:24:36 GMT 52.171837 5.299648 6,000 323 323 -192
2022-05-25 08:24:35 GMT 52.170776 5.300980 6,000 323 323 -192
2022-05-25 08:24:34 GMT 52.169495 5.302658 6,025 323 325 -384
2022-05-25 08:24:33 GMT 52.166622 5.306240 6,025 323 327 -448
2022-05-25 08:24:31 GMT 52.165558 5.307617 6,025 323 328 -512
2022-05-25 08:24:30 GMT 52.164368 5.309143 6,050 323 330 -576
2022-05-25 08:24:27 GMT 52.160992 5.313381 6,075 323 332 -704
2022-05-25 08:24:26 GMT 52.159176 5.315656 6,100 323 334 -704
2022-05-25 08:24:24 GMT 52.157318 5.317993 6,100 322 335 -704
2022-05-25 08:24:23 GMT 52.155991 5.319672 6,125 323 336 -704
2022-05-25 08:24:21 GMT 52.153076 5.323425 6,150 322 336 -1088
2022-05-25 08:24:20 GMT 52.151821 5.324995 6,250 322 337 -1344
2022-05-25 08:24:18 GMT 52.149490 5.327911 6,225 322 338 -1728
2022-05-25 08:24:17 GMT 52.148376 5.329389 6,275 322 339 -1856
2022-05-25 08:24:16 GMT 52.147156 5.330963 6,325 322 341 -1920
2022-05-25 08:24:14 GMT 52.144913 5.333786 6,350 322 342 -2112
2022-05-25 08:24:12 GMT 52.142303 5.337143 6,425 322 343 -2304
2022-05-25 08:24:11 GMT 52.140694 5.339199 6,475 322 344 -2432
2022-05-25 08:24:10 GMT 52.139297 5.340925 6,500 322 344 -2496
2022-05-25 08:24:08 GMT 52.137062 5.343828 6,600 322 345 -2560
2022-05-25 08:24:07 GMT 52.135941 5.345230 6,625 323 346 -2624
2022-05-25 08:24:05 GMT 52.133385 5.348458 6,725 323 347 -2496
2022-05-25 08:24:04 GMT 52.131912 5.350342 6,750 323 347 -2432
2022-05-25 08:24:03 GMT 52.130733 5.351833 6,800 323 348 -2304
2022-05-25 08:24:02 GMT 52.129242 5.353716 6,850 323 349 -2176
2022-05-25 08:23:59 GMT 52.125519 5.358425 6,925 323 351 -1728
2022-05-25 08:23:57 GMT 52.123489 5.361023 7,000 323 352 -1728
2022-05-25 08:23:54 GMT 52.119606 5.365880 7,075 323 354 -1920
2022-05-25 08:23:52 GMT 52.117676 5.368271 7,125 323 354 -1984
2022-05-25 08:23:50 GMT 52.115089 5.371530 7,175 323 354 -1984
2022-05-25 08:23:49 GMT 52.113789 5.373178 7,200 323 355 -1984
2022-05-25 08:23:48 GMT 52.112343 5.374983 7,250 323 356 -1856
2022-05-25 08:23:47 GMT 52.110527 5.377258 7,275 323 356 -1792
2022-05-25 08:23:46 GMT 52.109344 5.378723 7,375 323 357 -1344
2022-05-25 08:23:44 GMT 52.106758 5.382045 7,375 323 357 -1344
2022-05-25 08:23:42 GMT 52.103222 5.386440 7,450 323 357 -960
2022-05-25 08:23:39 GMT 52.100239 5.390206 7,475 323 357 -576
2022-05-25 08:23:37 GMT 52.097763 5.393372 7,475 323 357 -576
2022-05-25 08:23:35 GMT 52.095291 5.396423 7,500 323 357 -320
2022-05-25 08:23:34 GMT 52.091118 5.401664 7,500 323 355 -256
2022-05-25 08:23:32 GMT 52.091118 5.401664 7,500 323 355 0
2022-05-25 08:23:30 GMT 52.088371 5.405116 7,500 323 355 192
2022-05-25 08:23:27 GMT 52.085018 5.409354 7,500 323 354 320
2022-05-25 08:23:26 GMT 52.083061 5.411865 7,500 323 353 320
2022-05-25 08:23:24 GMT 52.080364 5.415240 7,475 323 352 128
2022-05-25 08:23:22 GMT 52.078033 5.418143 7,475 323 352 -64
2022-05-25 08:23:21 GMT 52.074966 5.422058 7,500 323 351 -64
2022-05-25 08:23:18 GMT 52.072777 5.424813 7,500 323 349 -64
2022-05-25 08:23:17 GMT 52.071655 5.426304 7,500 323 349 -64
2022-05-25 08:23:16 GMT 52.070480 5.427704 7,500 323 349 -64
2022-05-25 08:23:15 GMT 52.067932 5.430934 7,500 323 348 -128
2022-05-25 08:23:13 GMT 52.066818 5.432358 7,525 323 347 -192
2022-05-25 08:23:11 GMT 52.063614 5.436401 7,525 323 347 -320
2022-05-25 08:23:09 GMT 52.061604 5.438939 7,525 323 347 -320
2022-05-25 08:23:08 GMT 52.060345 5.440508 7,525 323 347 -512
2022-05-25 08:23:06 GMT 52.057892 5.443573 7,525 323 347 -768
2022-05-25 08:23:04 GMT 52.054733 5.447540 7,575 323 347 -1216
2022-05-25 08:23:03 GMT 52.053596 5.448983 7,600 323 348 -1536
2022-05-25 08:23:01 GMT 52.050896 5.452358 7,650 323 350 -1856
2022-05-25 08:22:59 GMT 52.049240 5.454407 7,675 323 350 -2112
2022-05-25 08:22:58 GMT 52.047318 5.456848 7,750 323 352 -2432
2022-05-25 08:22:56 GMT 52.044750 5.460048 7,900 323 352 -3008
2022-05-25 08:22:54 GMT 52.041550 5.464096 7,950 323 353 -3072
2022-05-25 08:22:52 GMT 52.039490 5.466718 8,050 323 353 -3264
2022-05-25 08:22:50 GMT 52.036884 5.469936 8,150 323 353 -3392
2022-05-25 08:22:47 GMT 52.032761 5.475082 8,325 323 354 -3456
2022-05-25 08:22:44 GMT 52.028870 5.479965 8,500 323 355 -3584
2022-05-25 08:22:43 GMT 52.027431 5.481785 8,575 323 354 -3584
2022-05-25 08:22:41 GMT 52.025105 5.484689 8,700 323 354 -3584
2022-05-25 08:22:40 GMT 52.023560 5.486603 8,750 323 355 -3392
2022-05-25 08:22:38 GMT 52.021729 5.488892 8,825 323 355 -3392
2022-05-25 08:22:36 GMT 52.019531 5.491638 8,975 323 355 -3264
2022-05-25 08:22:34 GMT 52.017052 5.494734 9,025 323 356 -3072
2022-05-25 08:22:32 GMT 52.014538 5.497872 9,100 323 357 -3008
2022-05-25 08:22:31 GMT 52.013096 5.499599 9,200 323 357 -2944
2022-05-25 08:22:29 GMT 52.010376 5.503082 9,325 323 358 -3008
2022-05-25 08:22:27 GMT 52.007462 5.506662 9,375 323 358 -3200
2022-05-25 08:22:26 GMT 52.006020 5.508466 9,450 323 359 -3328
2022-05-25 08:22:24 GMT 52.000763 5.514984 9,625 323 359 -3456
2022-05-25 08:22:22 GMT 52.000763 5.514984 9,725 323 360 -3456
2022-05-25 08:22:21 GMT 51.998150 5.518354 9,775 323 360 -3392
2022-05-25 08:22:19 GMT 51.996964 5.519791 9,850 323 360 -3392
2022-05-25 08:22:17 GMT 51.994171 5.523224 9,975 323 360 -3328
2022-05-25 08:22:16 GMT 51.991680 5.526358 10,075 323 361 -3264
2022-05-25 08:22:14 GMT 51.990097 5.528336 10,150 323 362 -3264
2022-05-25 08:22:13 GMT 51.988770 5.530014 10,250 323 362 -3200
2022-05-25 08:22:11 GMT 51.986095 5.533264 10,275 323 363 -3136
2022-05-25 08:22:10 GMT 51.984745 5.534912 10,350 323 363 -3072
2022-05-25 08:22:09 GMT 51.983551 5.536423 10,450 323 364 -3008
2022-05-25 08:22:08 GMT 51.981033 5.539627 10,475 323 365 -2880
2022-05-25 08:22:05 GMT 51.978241 5.543060 10,575 323 365 -2816
2022-05-25 08:22:03 GMT 51.975540 5.546417 10,675 323 367 -2752
2022-05-25 08:22:02 GMT 51.974075 5.548248 10,725 323 367 -2816
2022-05-25 08:22:01 GMT 51.971375 5.551682 10,825 323 369 -2944
2022-05-25 08:21:59 GMT 51.970047 5.553360 10,875 323 368 -3072
2022-05-25 08:21:57 GMT 51.967484 5.556564 10,950 323 369 -3200
2022-05-25 08:21:55 GMT 51.964771 5.559945 11,100 323 370 -3520
2022-05-25 08:21:53 GMT 51.962173 5.563126 11,200 323 370 -3520
2022-05-25 08:21:52 GMT 51.960663 5.564957 11,275 323 370 -3456
2022-05-25 08:21:51 GMT 51.959465 5.566459 11,325 323 370 -3456
2022-05-25 08:21:50 GMT 51.956207 5.570539 11,450 323 371 -3392
2022-05-25 08:21:48 GMT 51.954849 5.572281 11,500 323 372 -3328
2022-05-25 08:21:47 GMT 51.953476 5.573959 11,575 323 372 -3264
2022-05-25 08:21:45 GMT 51.950481 5.577680 11,700 323 373 0
2022-05-25 08:21:44 GMT 51.949814 5.578537 11,700 323 373 -3008
2022-05-25 08:21:42 GMT 51.946426 5.582886 11,825 323 374 -2944
2022-05-25 08:21:40 GMT 51.944103 5.585763 11,925 323 376 -2944
2022-05-25 08:21:39 GMT 51.941071 5.589600 12,025 323 376 -3008
2022-05-25 08:21:37 GMT 51.939697 5.591278 12,075 323 377 -3072
2022-05-25 08:21:36 GMT 51.938473 5.592826 12,125 323 377 -3200
2022-05-25 08:21:34 GMT 51.934479 5.597916 12,250 323 377 -3456
2022-05-25 08:21:33 GMT 51.934479 5.597916 12,275 322 378 -3520
2022-05-25 08:21:31 GMT 51.931458 5.601730 12,425 322 378 -3648
2022-05-25 08:21:30 GMT 51.930183 5.603263 12,475 322 378 -3648
2022-05-25 08:21:29 GMT 51.928848 5.605011 12,525 322 378 -3584
2022-05-25 08:21:27 GMT 51.925781 5.608902 12,650 322 378 -3456
2022-05-25 08:21:26 GMT 51.924545 5.610428 12,700 322 379 -3456
2022-05-25 08:21:23 GMT 51.920132 5.616054 12,900 322 380 -3392
2022-05-25 08:21:22 GMT 51.918915 5.617676 12,950 322 380 -3456
2022-05-25 08:21:19 GMT 51.914932 5.622787 13,150 322 381 -3712
2022-05-25 08:21:17 GMT 51.912868 5.625471 13,275 322 381 -3776
2022-05-25 08:21:16 GMT 51.911331 5.627433 13,325 322 381 -3776
2022-05-25 08:21:14 GMT 51.908863 5.630650 13,375 322 382 -3712
2022-05-25 08:21:12 GMT 51.905823 5.634537 13,550 322 382 -3520
2022-05-25 08:21:11 GMT 51.904724 5.635986 13,550 322 382 -3456
2022-05-25 08:21:10 GMT 51.903351 5.637741 13,625 322 383 -3392
2022-05-25 08:21:09 GMT 51.898544 5.644073 14,000 321 383 -3328
2022-05-25 08:21:07 GMT 51.895660 5.647964 14,000 321 385 -3392
2022-05-25 08:21:05 GMT 51.895660 5.647964 14,000 321 385 -3520
2022-05-25 08:21:02 GMT 51.892666 5.652008 14,075 320 385 -3840
2022-05-25 08:21:00 GMT 51.889267 5.656586 14,225 320 384 -4096
2022-05-25 08:20:59 GMT 51.886688 5.660112 14,375 320 384 -4288
2022-05-25 08:20:57 GMT 51.885216 5.662155 14,450 320 384 -4288
2022-05-25 08:20:56 GMT 51.883850 5.664046 14,500 321 384 -4224
2022-05-25 08:20:55 GMT 51.881073 5.667725 14,650 322 384 -4096
2022-05-25 08:20:53 GMT 51.879723 5.669479 14,850 323 385 -3904
2022-05-25 08:20:51 GMT 51.876617 5.673399 14,850 324 387 -3776
2022-05-25 08:20:48 GMT 51.870987 5.680006 15,100 327 388 -3904
2022-05-25 08:20:46 GMT 51.869621 5.681458 15,175 327 389 -3968
2022-05-25 08:20:45 GMT 51.864964 5.686340 15,325 328 389 -3968
2022-05-25 08:20:43 GMT 51.864964 5.686340 15,400 330 390 -3840
2022-05-25 08:20:42 GMT 51.862171 5.689087 15,500 330 391 -3648
2022-05-25 08:20:40 GMT 51.860638 5.690536 15,550 331 392 -3520
2022-05-25 08:20:39 GMT 51.858444 5.692551 15,625 332 392 -3456
2022-05-25 08:20:38 GMT 51.855240 5.695372 15,750 332 394 -3392
2022-05-25 08:20:36 GMT 51.853455 5.696857 15,800 334 396 -3392
2022-05-25 08:20:35 GMT 51.851978 5.698013 15,850 335 396 -3456
2022-05-25 08:20:33 GMT 51.848488 5.700607 15,975 337 398 -3648
2022-05-25 08:20:32 GMT 51.846954 5.701682 16,075 339 399 -3776
2022-05-25 08:20:31 GMT 51.845089 5.702896 16,100 340 400 -3840
2022-05-25 08:20:28 GMT 51.840179 5.705616 16,300 344 402 -4032
2022-05-25 08:20:26 GMT 51.836800 5.707245 16,425 347 404 -4160
2022-05-25 08:20:25 GMT 51.834057 5.708237 16,525 348 405 -4160
2022-05-25 08:20:24 GMT 51.832397 5.708882 16,700 350 406 -4160
2022-05-25 08:20:23 GMT 51.828552 5.709996 16,700 352 406 -4160
2022-05-25 08:20:21 GMT 51.827042 5.710367 16,800 353 407 -4160
2022-05-25 08:20:19 GMT 51.823151 5.711258 16,875 353 408 -4160
2022-05-25 08:20:17 GMT 51.819576 5.711975 17,075 354 408 -4032
2022-05-25 08:20:15 GMT 51.814316 5.712967 17,350 354 409 -3584
2022-05-25 08:20:12 GMT 51.810745 5.713633 17,350 354 410 -3584
2022-05-25 08:20:10 GMT 51.803936 5.714874 17,525 354 411 -3456
2022-05-25 08:20:08 GMT 51.799026 5.715637 17,725 355 413 -3648
2022-05-25 08:20:06 GMT 51.796951 5.715942 17,900 355 413 -3840
2022-05-25 08:20:04 GMT 51.794857 5.716171 17,900 358 415 -4096
2022-05-25 08:20:02 GMT 51.792156 5.716476 17,975 0 416 -4224
2022-05-25 08:20:01 GMT 51.790623 5.716476 18,025 0 416 -4352
2022-05-25 08:20:00 GMT 51.784664 5.716400 18,200 2 418 -4416
2022-05-25 08:19:58 GMT 51.784664 5.716400 18,250 3 419 -4416
2022-05-25 08:19:57 GMT 51.781357 5.716019 18,375 6 420 -4288
2022-05-25 08:19:55 GMT 51.778660 5.715637 18,475 7 421 -4224
2022-05-25 08:19:54 GMT 51.776962 5.715266 18,550 7 421 -4096
2022-05-25 08:19:52 GMT 51.772888 5.714301 18,750 10 424 -3904
2022-05-25 08:19:50 GMT 51.768860 5.713113 18,825 13 426 -3840
2022-05-25 08:19:48 GMT 51.765575 5.711823 19,025 16 428 -4032
2022-05-25 08:19:46 GMT 51.761398 5.709996 19,225 19 429 -4288
2022-05-25 08:19:44 GMT 51.757614 5.708008 19,225 19 429 -4288
2022-05-25 08:19:42 GMT 51.753937 5.705719 19,375 23 431 -4480
2022-05-25 08:19:41 GMT 51.751888 5.704422 19,450 25 432 -4480
2022-05-25 08:19:40 GMT 51.750072 5.703125 19,625 25 432 -4480
2022-05-25 08:19:38 GMT 51.746815 5.700607 19,675 27 433 -4352
2022-05-25 08:19:37 GMT 51.744862 5.699005 19,750 28 434 -4352
2022-05-25 08:19:36 GMT 51.741531 5.696040 19,900 30 434 -4352
2022-05-25 08:19:34 GMT 51.740158 5.694704 19,925 31 435 -4352
2022-05-25 08:19:33 GMT 51.737740 5.692368 20,125 33 436 -4288
2022-05-25 08:19:32 GMT 51.734070 5.688394 20,200 35 438 -4160
2022-05-25 08:19:30 GMT 51.732616 5.686722 20,375 39 440 -3776
2022-05-25 08:19:28 GMT 51.727634 5.680466 20,475 40 441 -3648
2022-05-25 08:19:26 GMT 51.726242 5.678595 20,525 41 442 -3584
2022-05-25 08:19:24 GMT 51.720337 5.669836 20,750 44 446 -3584
2022-05-25 08:19:22 GMT 51.720337 5.669836 20,750 49 450 -3776
2022-05-25 08:19:21 GMT 51.717209 5.664520 20,975 49 450 -3776
2022-05-25 08:19:18 GMT 51.713810 5.658264 21,050 50 451 -3776
2022-05-25 08:19:16 GMT 51.711365 5.653208 21,150 53 455 -3584
2022-05-25 08:19:14 GMT 51.706501 5.642166 21,400 56 457 -3584
2022-05-25 08:19:12 GMT 51.706501 5.642166 21,400 57 458 -3584
2022-05-25 08:19:10 GMT 51.704128 5.636063 21,525 61 462 -3712
2022-05-25 08:19:09 GMT 51.702530 5.631607 21,650 61 462 -3776
2022-05-25 08:19:06 GMT 51.701065 5.627078 21,725 65 466 -3648
2022-05-25 08:19:05 GMT 51.700169 5.624313 21,875 65 466 -3648
2022-05-25 08:19:03 GMT 51.697887 5.616455 21,950 68 469 -3456
2022-05-25 08:19:01 GMT 51.696167 5.609708 22,050 68 469 -3392
2022-05-25 08:19:00 GMT 51.695282 5.605774 22,125 71 473 -3136
2022-05-25 08:18:58 GMT 51.693192 5.595753 22,250 73 476 -3008
2022-05-25 08:18:56 GMT 51.692551 5.592412 22,325 74 478 -2944
2022-05-25 08:18:54 GMT 51.691360 5.585137 22,400 77 482 -3008
2022-05-25 08:18:52 GMT 51.690399 5.578160 22,500 78 484 -3008
2022-05-25 08:18:50 GMT 51.689209 5.567173 22,700 82 488 -3264
2022-05-25 08:18:48 GMT 51.689026 5.565021 22,825 84 491 -3392
2022-05-25 08:18:45 GMT 51.688477 5.555890 23,000 86 493 -3520
2022-05-25 08:18:43 GMT 51.688110 5.547131 23,000 87 494 -3456
2022-05-25 08:18:42 GMT 51.688110 5.545646 23,050 89 497 -3328
2022-05-25 08:18:40 GMT 51.688065 5.536441 23,125 90 499 -3264
2022-05-25 08:18:38 GMT 51.688251 5.527496 23,275 94 504 -2880
2022-05-25 08:18:36 GMT 51.688477 5.521595 23,300 94 504 -2880
2022-05-25 08:18:35 GMT 51.688705 5.517809 23,425 97 508 -3072
2022-05-25 08:18:34 GMT 51.688934 5.514097 23,475 97 508 -3072
2022-05-25 08:18:32 GMT 51.689602 5.506592 23,525 99 510 -3328
2022-05-25 08:18:31 GMT 51.689976 5.502853 23,600 101 513 -3584
2022-05-25 08:18:29 GMT 51.691452 5.491679 23,775 103 514 -3840
2022-05-25 08:18:27 GMT 51.692001 5.487968 23,900 106 517 -3776
2022-05-25 08:18:26 GMT 51.693329 5.480173 24,000 106 517 -3776
2022-05-25 08:18:24 GMT 51.694118 5.476151 24,075 108 518 -3584
2022-05-25 08:18:23 GMT 51.694748 5.472825 24,150 109 519 -3456
2022-05-25 08:18:20 GMT 51.697266 5.461541 24,275 111 522 -3072
2022-05-25 08:18:18 GMT 51.699051 5.454341 24,375 112 523 -3072
2022-05-25 08:18:17 GMT 51.700058 5.450332 24,475 113 525 -3200
2022-05-25 08:18:15 GMT 51.701473 5.444946 24,525 113 525 -3264
2022-05-25 08:18:14 GMT 51.702545 5.441055 24,575 113 526 -3456
2022-05-25 08:18:12 GMT 51.704685 5.433121 24,775 113 527 -3648
2022-05-25 08:18:11 GMT 51.705597 5.429918 24,775 113 527 -3840
2022-05-25 08:18:10 GMT 51.706779 5.425644 24,850 113 527 -4032
2022-05-25 08:18:07 GMT 51.709717 5.414849 25,100 113 527 -4480
2022-05-25 08:18:06 GMT 51.710724 5.411286 25,125 113 527 -4480
2022-05-25 08:18:05 GMT 51.713745 5.400151 25,375 113 527 -4672
2022-05-25 08:18:03 GMT 51.713745 5.400151 25,375 113 526 -4736
2022-05-25 08:18:02 GMT 51.716698 5.389404 25,625 113 526 -4928
2022-05-25 08:18:00 GMT 51.716698 5.389404 25,625 113 526 -4992
2022-05-25 08:17:58 GMT 51.719582 5.379028 25,875 114 525 -5120
2022-05-25 08:17:55 GMT 51.722717 5.367638 26,150 113 524 -5184
2022-05-25 08:17:53 GMT 51.723633 5.364456 26,225 114 523 -5184
2022-05-25 08:17:52 GMT 51.724503 5.361254 26,375 114 523 -5184
2022-05-25 08:17:50 GMT 51.726562 5.353756 26,475 114 523 -4992
2022-05-25 08:17:49 GMT 51.727451 5.350571 26,550 113 521 -4800
2022-05-25 08:17:48 GMT 51.728428 5.347061 26,625 113 521 -4800
2022-05-25 08:17:46 GMT 51.730103 5.340958 26,950 113 521 -4544
2022-05-25 08:17:44 GMT 51.732559 5.332081 26,950 113 521 -4544
2022-05-25 08:17:42 GMT 51.734390 5.325400 27,150 113 521 -4480
2022-05-25 08:17:40 GMT 51.736061 5.319366 27,175 113 521 -4416
2022-05-25 08:17:38 GMT 51.738483 5.310440 27,400 113 521 -4288
2022-05-25 08:17:37 GMT 51.740345 5.303726 27,525 113 521 -4224
2022-05-25 08:17:35 GMT 51.741394 5.299790 27,600 113 521 -4224
2022-05-25 08:17:32 GMT 51.744415 5.288804 27,975 113 521 -4288
2022-05-25 08:17:29 GMT 51.746956 5.279617 28,050 114 521 -4288
2022-05-25 08:17:28 GMT 51.747849 5.276407 28,075 114 521 -4288
2022-05-25 08:17:27 GMT 51.750774 5.265808 28,275 114 521 -4288
2022-05-25 08:17:25 GMT 51.750774 5.265808 28,300 114 521 -4224
2022-05-25 08:17:23 GMT 51.753147 5.257339 28,425 114 520 -4160
2022-05-25 08:17:21 GMT 51.756729 5.244561 29,775 114 520 -4096
2022-05-25 08:17:19 GMT 51.756729 5.244561 29,775 114 520 -4096
2022-05-25 08:17:17 GMT 51.758835 5.237212 28,850 114 520 -4096
2022-05-25 08:17:16 GMT 51.761719 5.226968 29,050 114 521 -4096
2022-05-25 08:17:13 GMT 51.762772 5.223479 29,125 115 521 -3968
2022-05-25 08:17:11 GMT 51.765018 5.215759 29,250 115 521 -3904
2022-05-25 08:17:09 GMT 51.766834 5.209427 29,375 115 521 -3840
2022-05-25 08:17:08 GMT 51.767990 5.205590 29,575 115 521 -3840
2022-05-25 08:17:06 GMT 51.772156 5.191560 29,625 115 521 -3840
2022-05-25 08:17:04 GMT 51.772156 5.191560 29,775 115 521 -3904
2022-05-25 08:17:02 GMT 51.774326 5.184250 29,850 116 521 -3904
2022-05-25 08:16:59 GMT 51.779449 5.167465 30,100 116 521 -3840
2022-05-25 08:16:57 GMT 51.779449 5.167465 30,200 116 521 -3840
2022-05-25 08:16:55 GMT 51.781448 5.160902 30,275 116 521 -3840
2022-05-25 08:16:54 GMT 51.783051 5.155631 30,375 116 521 -3776
2022-05-25 08:16:52 GMT 51.784744 5.150064 30,475 116 521 -3776
2022-05-25 08:16:50 GMT 51.786896 5.143127 30,600 116 521 -3712
2022-05-25 08:16:48 GMT 51.791225 5.128784 30,825 116 521 -3840
2022-05-25 08:16:46 GMT 51.791225 5.128784 30,975 116 521 -3968
2022-05-25 08:16:44 GMT 51.794449 5.118367 31,050 116 521 -4032
2022-05-25 08:16:41 GMT 51.796463 5.111760 31,175 116 521 -4032
2022-05-25 08:16:39 GMT 51.798721 5.104446 31,450 116 521 -3904
2022-05-25 08:16:37 GMT 51.802917 5.090901 31,525 116 520 -3584
2022-05-25 08:16:35 GMT 51.802917 5.090901 31,625 116 520 -3584
2022-05-25 08:16:33 GMT 51.807194 5.077057 31,775 116 519 -3520
2022-05-25 08:16:31 GMT 51.807194 5.077057 31,800 116 519 -3520
2022-05-25 08:16:30 GMT 51.809189 5.070487 31,900 116 518 -3456
2022-05-25 08:16:27 GMT 51.812485 5.059724 32,100 116 517 -3392
2022-05-25 08:16:24 GMT 51.814728 5.052449 32,200 116 517 -3328
2022-05-25 08:16:23 GMT 51.817902 5.042114 32,300 116 515 -3136
2022-05-25 08:16:21 GMT 51.817902 5.042114 32,450 116 515 -3136
2022-05-25 08:16:18 GMT 51.820496 5.033520 32,525 115 516 -3072
2022-05-25 08:16:17 GMT 51.822922 5.025577 32,625 115 514 -2880
2022-05-25 08:16:15 GMT 51.823860 5.022430 32,800 115 514 -2880
2022-05-25 08:16:13 GMT 51.827774 5.009320 32,825 115 514 -2880
2022-05-25 08:16:11 GMT 51.830383 5.000709 32,875 115 514 -2816
2022-05-25 08:16:09 GMT 51.830383 5.000709 32,950 115 514 -2688
2022-05-25 08:16:08 GMT 51.831024 4.998631 33,050 115 514 -2624
2022-05-25 08:16:07 GMT 51.832474 4.993820 33,050 115 514 -2624
2022-05-25 08:16:04 GMT 51.835785 4.982745 33,175 116 515 -2624
2022-05-25 08:16:03 GMT 51.836838 4.979331 33,225 116 515 -2752
2022-05-25 08:16:01 GMT 51.838943 4.972382 33,325 116 515 -3008
2022-05-25 08:15:59 GMT 51.841038 4.965515 33,425 116 515 -3008
2022-05-25 08:15:57 GMT 51.842621 4.960403 33,500 116 513 -3072
2022-05-25 08:15:56 GMT 51.843693 4.956970 33,550 116 513 -3072
2022-05-25 08:15:55 GMT 51.845032 4.952459 33,625 116 514 -3008
2022-05-25 08:15:53 GMT 51.847321 4.944916 33,725 115 512 -2944
2022-05-25 08:15:51 GMT 51.849834 4.936676 33,950 115 512 -2944
2022-05-25 08:15:48 GMT 51.852264 4.928407 33,950 115 512 -2944
2022-05-25 08:15:46 GMT 51.856956 4.912491 34,125 115 512 -2880
2022-05-25 08:15:43 GMT 51.856956 4.912491 34,175 115 510 -3008
2022-05-25 08:15:41 GMT 51.862823 4.892502 34,425 115 510 -3008
2022-05-25 08:15:38 GMT 51.862823 4.892502 34,475 115 510 -2944
2022-05-25 08:15:35 GMT 51.866409 4.880082 34,625 115 510 -2752
2022-05-25 08:15:32 GMT 51.868645 4.872513 34,700 115 511 -2432
2022-05-25 08:15:29 GMT 51.871719 4.861821 34,825 115 510 -1728
2022-05-25 08:15:27 GMT 51.874321 4.852829 34,900 114 511 -768
2022-05-25 08:15:23 GMT 51.878906 4.836954 35,000 114 515 0
2022-05-25 08:15:21 GMT 51.878906 4.836954 34,975 114 512 -384
2022-05-25 08:15:19 GMT 51.884563 4.817123 35,000 114 514 0
2022-05-25 08:15:16 GMT 51.886047 4.811937 35,000 114 514 0
2022-05-25 08:15:14 GMT 51.888748 4.802510 35,000 114 514 0
2022-05-25 08:15:11 GMT 51.888748 4.802510 35,000 114 514 0
2022-05-25 08:15:09 GMT 51.891861 4.791672 35,000 114 515 0
2022-05-25 08:15:06 GMT 51.895039 4.780544 35,000 114 515 0
2022-05-25 08:15:03 GMT 51.898716 4.767596 35,000 114 515 0
2022-05-25 08:15:01 GMT 51.898716 4.767596 35,000 114 515 0
2022-05-25 08:14:59 GMT 51.900787 4.760284 35,000 114 515 0
2022-05-25 08:14:56 GMT 51.904118 4.748762 35,000 114 516 0
2022-05-25 08:14:53 GMT 51.907280 4.737540 35,000 114 516 0
2022-05-25 08:14:51 GMT 51.909256 4.730530 35,000 114 516 0
2022-05-25 08:14:49 GMT 51.910950 4.724579 35,000 114 516 0
2022-05-25 08:14:47 GMT 51.912868 4.717922 35,000 114 516 0
2022-05-25 08:14:45 GMT 51.914841 4.710999 35,000 114 516 0
2022-05-25 08:14:42 GMT 51.917336 4.702227 35,000 114 516 0
2022-05-25 08:14:40 GMT 51.919849 4.693438 35,000 114 516 0
2022-05-25 08:14:37 GMT 51.922852 4.682999 35,000 114 516 64
2022-05-25 08:14:34 GMT 51.927021 4.668248 35,000 114 516 0
2022-05-25 08:14:31 GMT 51.928883 4.661577 35,000 114 516 0
2022-05-25 08:14:28 GMT 51.932098 4.650421 35,000 114 516 0
2022-05-25 08:14:26 GMT 51.934376 4.642351 35,000 114 517 0
2022-05-25 08:14:23 GMT 51.937260 4.632150 35,000 114 517 0
2022-05-25 08:14:20 GMT 51.940475 4.620895 35,000 114 517 0
2022-05-25 08:14:17 GMT 51.942947 4.612122 35,000 114 516 0
2022-05-25 08:14:14 GMT 51.947128 4.597386 35,000 114 516 0
2022-05-25 08:14:11 GMT 51.948994 4.590716 35,000 114 516 0
2022-05-25 08:14:08 GMT 51.951874 4.580536 35,000 114 516 0
2022-05-25 08:14:06 GMT 51.953506 4.574942 35,000 114 517 0
2022-05-25 08:14:03 GMT 51.957642 4.560165 35,000 114 517 0
2022-05-25 08:14:00 GMT 51.959656 4.553146 35,000 114 517 0
2022-05-25 08:13:57 GMT 51.962540 4.542923 35,000 114 517 0
2022-05-25 08:13:55 GMT 51.965012 4.534149 35,000 114 518 0
2022-05-25 08:13:53 GMT 51.967472 4.525347 35,000 114 518 64
2022-05-25 08:13:50 GMT 51.969566 4.517970 35,000 114 518 0
2022-05-25 08:13:47 GMT 51.972427 4.507675 35,000 114 518 0
2022-05-25 08:13:45 GMT 51.975014 4.498587 35,000 114 518 0
2022-05-25 08:13:43 GMT 51.979389 4.483050 35,000 114 518 0
2022-05-25 08:13:40 GMT 51.979389 4.483050 35,000 114 518 0
2022-05-25 08:13:37 GMT 51.982838 4.470729 35,000 114 518 0
2022-05-25 08:13:34 GMT 51.985909 4.459743 35,000 114 518 0
2022-05-25 08:13:31 GMT 51.989212 4.448129 35,000 114 518 0
2022-05-25 08:13:28 GMT 51.992191 4.437535 35,000 114 518 0
2022-05-25 08:13:26 GMT 51.993576 4.432602 35,000 114 518 0
2022-05-25 08:13:24 GMT 51.995453 4.425842 35,000 114 518 0
2022-05-25 08:13:22 GMT 51.997833 4.417419 35,000 114 519 0
2022-05-25 08:13:20 GMT 51.999733 4.410697 35,000 114 519 0
2022-05-25 08:13:18 GMT 52.001724 4.403610 35,000 114 519 0
2022-05-25 08:13:15 GMT 52.005276 4.390921 35,000 114 519 0
2022-05-25 08:13:12 GMT 52.008533 4.379229 35,000 114 519 0
2022-05-25 08:13:09 GMT 52.011108 4.370041 35,000 114 519 0
2022-05-25 08:13:06 GMT 52.014305 4.358669 35,000 114 519 0
2022-05-25 08:13:03 GMT 52.017471 4.347369 35,000 114 520 0
2022-05-25 08:13:00 GMT 52.019852 4.338837 35,000 114 520 0
2022-05-25 08:12:57 GMT 52.025291 4.319353 35,000 114 520 0
2022-05-25 08:12:55 GMT 52.025291 4.319353 35,000 114 520 0
2022-05-25 08:12:52 GMT 52.026875 4.313703 35,000 114 520 0
2022-05-25 08:12:49 GMT 52.029945 4.302717 35,000 114 521 0
2022-05-25 08:12:47 GMT 52.031937 4.295578 35,000 114 521 0
2022-05-25 08:12:45 GMT 52.037201 4.276810 35,000 114 521 0
2022-05-25 08:12:42 GMT 52.037201 4.276810 35,000 114 521 0
2022-05-25 08:12:39 GMT 52.040634 4.264374 35,000 114 521 0
2022-05-25 08:12:36 GMT 52.043213 4.255083 35,000 114 521 0
2022-05-25 08:12:33 GMT 52.046402 4.243774 35,000 114 521 0
2022-05-25 08:12:30 GMT 52.049286 4.233398 35,000 114 521 0
2022-05-25 08:12:27 GMT 52.052525 4.221654 35,000 114 521 0
2022-05-25 08:12:24 GMT 52.055511 4.211044 35,000 114 521 0
2022-05-25 08:12:22 GMT 52.057571 4.203568 35,000 114 521 0
2022-05-25 08:12:19 GMT 52.060684 4.192505 35,000 114 522 0
2022-05-25 08:12:16 GMT 52.062767 4.185006 35,000 114 522 0
2022-05-25 08:12:12 GMT 52.069889 4.159345 35,000 114 522 0
2022-05-25 08:12:09 GMT 52.069889 4.159345 35,000 114 522 0
2022-05-25 08:12:06 GMT 52.072678 4.149399 35,000 114 522 0
2022-05-25 08:12:04 GMT 52.074917 4.141218 35,000 114 522 0
2022-05-25 08:12:02 GMT 52.076824 4.134391 35,000 114 522 0
2022-05-25 08:11:59 GMT 52.079712 4.124111 35,000 114 522 0
2022-05-25 08:11:56 GMT 52.082458 4.114066 35,000 114 522 0
2022-05-25 08:11:54 GMT 52.087418 4.096298 35,000 114 522 0
2022-05-25 08:11:51 GMT 52.087418 4.096298 35,000 114 522 0
2022-05-25 08:11:48 GMT 52.090576 4.084854 35,000 114 522 0
2022-05-25 08:11:45 GMT 52.093582 4.074201 35,000 114 522 0
2022-05-25 08:11:43 GMT 52.095352 4.067766 35,000 114 522 0
2022-05-25 08:11:40 GMT 52.099640 4.052429 35,000 114 522 0
2022-05-25 08:11:37 GMT 52.102203 4.043121 35,000 114 522 0
2022-05-25 08:11:35 GMT 52.103779 4.037397 35,000 114 522 0
2022-05-25 08:11:32 GMT 52.107178 4.025234 35,000 114 522 0
2022-05-25 08:11:29 GMT 52.110535 4.013138 35,000 114 522 0
2022-05-25 08:11:26 GMT 52.113007 4.004211 35,000 114 522 0
2022-05-25 08:11:23 GMT 52.116119 3.993149 35,000 114 522 0
2022-05-25 08:11:20 GMT 52.118908 3.983172 35,000 114 522 0
2022-05-25 08:11:17 GMT 52.122959 3.968497 35,000 114 522 0
2022-05-25 08:11:15 GMT 52.122959 3.968497 35,000 114 522 0
2022-05-25 08:11:12 GMT 52.127007 3.953823 35,000 114 522 0
2022-05-25 08:11:09 GMT 52.132690 3.933487 35,000 114 522 0
2022-05-25 08:11:06 GMT 52.135155 3.924552 35,000 114 522 0
2022-05-25 08:11:03 GMT 52.135155 3.924552 35,000 114 522 0
2022-05-25 08:11:00 GMT 52.141159 3.903207 35,000 114 522 0
2022-05-25 08:10:57 GMT 52.141159 3.903207 35,000 114 522 0
2022-05-25 08:10:54 GMT 52.144135 3.892441 35,000 111 519 0
2022-05-25 08:10:51 GMT 52.150471 3.867501 35,000 111 519 0
2022-05-25 08:10:48 GMT 52.150471 3.867501 35,000 107 515 0
2022-05-25 08:10:45 GMT 52.155079 3.847491 35,000 110 519 0
2022-05-25 08:10:42 GMT 52.155079 3.847491 35,000 105 513 0
2022-05-25 08:10:39 GMT 52.157272 3.837204 35,000 107 516 0
2022-05-25 08:10:36 GMT 52.160198 3.822457 35,000 106 515 0
2022-05-25 08:10:33 GMT 52.161644 3.814689 35,000 104 513 0
2022-05-25 08:10:30 GMT 52.163647 3.803153 35,000 104 513 0
2022-05-25 08:10:27 GMT 52.165089 3.794207 35,000 103 512 0
2022-05-25 08:10:24 GMT 52.166885 3.782272 35,000 101 510 0
2022-05-25 08:10:21 GMT 52.168625 3.769913 35,000 100 508 0
2022-05-25 08:10:18 GMT 52.169834 3.760149 35,000 93 499 0
2022-05-25 08:10:15 GMT 52.171467 3.745475 35,000 98 506 0
2022-05-25 08:10:12 GMT 52.172585 3.733861 35,000 97 505 0
2022-05-25 08:10:10 GMT 52.173187 3.727112 35,000 94 501 64
2022-05-25 08:10:07 GMT 52.173935 3.717346 35,000 93 500 64
2022-05-25 08:10:04 GMT 52.174583 3.706787 35,000 93 500 64
2022-05-25 08:10:01 GMT 52.175262 3.692551 35,000 93 499 0
2022-05-25 08:09:58 GMT 52.175610 3.682460 35,000 93 499 0
2022-05-25 08:09:55 GMT 52.176041 3.670425 35,000 93 499 0
2022-05-25 08:09:52 GMT 52.176445 3.659232 35,000 93 499 0
2022-05-25 08:09:49 GMT 52.176727 3.651699 35,000 93 499 0
2022-05-25 08:09:46 GMT 52.177193 3.638593 35,000 93 499 0
2022-05-25 08:09:43 GMT 52.177597 3.627396 35,000 93 499 0
2022-05-25 08:09:40 GMT 52.177937 3.617641 35,000 93 498 0
2022-05-25 08:09:37 GMT 52.178284 3.606796 35,000 93 498 64
2022-05-25 08:09:34 GMT 52.178787 3.592606 35,000 93 498 64
2022-05-25 08:09:30 GMT 52.179287 3.577619 35,000 93 498 0
2022-05-25 08:09:27 GMT 52.179611 3.568281 35,000 93 498 0
2022-05-25 08:09:25 GMT 52.179932 3.558884 35,000 93 498 0
2022-05-25 08:09:23 GMT 52.180573 3.538742 35,000 93 498 0
2022-05-25 08:09:20 GMT 52.180573 3.538742 35,000 93 498 -64
2022-05-25 08:09:16 GMT 52.181122 3.522644 35,000 93 498 -64
2022-05-25 08:09:13 GMT 52.181305 3.517380 35,000 93 498 0
2022-05-25 08:09:09 GMT 52.181801 3.501657 35,000 93 498 0
2022-05-25 08:09:05 GMT 52.182312 3.486328 35,000 93 498 0
2022-05-25 08:09:03 GMT 52.182590 3.479292 35,000 93 498 0
2022-05-25 08:09:01 GMT 52.183384 3.455357 35,000 93 498 0
2022-05-25 08:08:58 GMT 52.183384 3.455357 35,000 93 498 0
2022-05-25 08:08:55 GMT 52.183731 3.445587 35,000 93 498 0
2022-05-25 08:08:52 GMT 52.183941 3.438878 35,000 93 498 0
2022-05-25 08:08:50 GMT 52.184174 3.431815 35,000 93 498 0
2022-05-25 08:08:47 GMT 52.184647 3.418732 35,000 93 498 0
2022-05-25 08:08:44 GMT 52.185059 3.405609 35,000 93 498 0
2022-05-25 08:08:41 GMT 52.185478 3.394383 35,000 93 498 0
2022-05-25 08:08:38 GMT 52.185837 3.383942 35,000 93 498 0
2022-05-25 08:08:35 GMT 52.186203 3.373108 35,000 93 498 0
2022-05-25 08:08:32 GMT 52.186569 3.361511 35,000 93 498 0
2022-05-25 08:08:29 GMT 52.186966 3.350281 35,000 93 498 0
2022-05-25 08:08:26 GMT 52.187256 3.342438 35,000 93 498 0
2022-05-25 08:08:23 GMT 52.187759 3.327484 35,000 93 498 0
2022-05-25 08:08:20 GMT 52.188629 3.301697 35,000 93 498 0
2022-05-25 08:08:17 GMT 52.188629 3.301697 35,000 93 498 0
2022-05-25 08:08:14 GMT 52.188812 3.296051 35,000 93 498 0
2022-05-25 08:08:12 GMT 52.189545 3.273239 35,000 93 498 0
2022-05-25 08:08:09 GMT 52.189545 3.273239 35,000 93 498 0
2022-05-25 08:08:06 GMT 52.189808 3.265765 35,000 93 498 0
2022-05-25 08:08:03 GMT 52.190277 3.251572 35,000 93 498 0
2022-05-25 08:08:00 GMT 52.190552 3.242569 35,000 93 498 0
2022-05-25 08:07:57 GMT 52.190918 3.231735 35,000 93 498 0
2022-05-25 08:07:54 GMT 52.191330 3.220139 35,000 93 498 0
2022-05-25 08:07:51 GMT 52.192017 3.199539 35,000 93 498 0
2022-05-25 08:07:48 GMT 52.192017 3.199539 35,000 93 498 0
2022-05-25 08:07:45 GMT 52.192429 3.187180 35,000 93 498 0
2022-05-25 08:07:42 GMT 52.192833 3.174500 35,000 93 498 0
2022-05-25 08:07:39 GMT 52.193157 3.165161 35,000 93 498 -64
2022-05-25 08:07:35 GMT 52.194042 3.138951 35,000 93 498 0
2022-05-25 08:07:32 GMT 52.194042 3.138951 35,000 93 498 0
2022-05-25 08:07:29 GMT 52.194462 3.127415 35,000 93 498 0
2022-05-25 08:07:26 GMT 52.195267 3.103867 35,000 93 498 0
2022-05-25 08:07:23 GMT 52.195267 3.103867 35,000 93 498 -64
2022-05-25 08:07:20 GMT 52.195724 3.090744 35,000 93 498 -64
2022-05-25 08:07:17 GMT 52.195953 3.083649 35,000 93 498 0
2022-05-25 08:07:14 GMT 52.196835 3.057887 35,000 93 498 0
2022-05-25 08:07:11 GMT 52.197235 3.045502 35,000 93 498 0
2022-05-25 08:07:08 GMT 52.197235 3.045502 35,000 93 498 0
2022-05-25 08:07:05 GMT 52.197510 3.037720 35,000 93 498 0
2022-05-25 08:07:02 GMT 52.197922 3.025360 35,000 93 498 0
2022-05-25 08:06:59 GMT 52.198288 3.014526 35,000 93 497 0
2022-05-25 08:06:56 GMT 52.199070 2.990949 35,000 93 497 0
2022-05-25 08:06:53 GMT 52.199070 2.990949 35,000 93 497 0
2022-05-25 08:06:51 GMT 52.199257 2.985770 35,000 93 498 0
2022-05-25 08:06:49 GMT 52.199570 2.976379 35,000 93 498 0
2022-05-25 08:06:46 GMT 52.200256 2.955475 35,000 93 498 0
2022-05-25 08:06:43 GMT 52.200256 2.955475 35,000 93 498 0
2022-05-25 08:06:40 GMT 52.200562 2.947239 35,000 93 498 0
2022-05-25 08:06:38 GMT 52.200932 2.936802 35,000 93 498 0
2022-05-25 08:06:34 GMT 52.201492 2.919998 35,000 93 498 -64
2022-05-25 08:06:31 GMT 52.201817 2.910671 35,000 93 498 64
2022-05-25 08:06:28 GMT 52.202820 2.884064 35,000 93 498 0
2022-05-25 08:06:25 GMT 52.202820 2.884064 35,000 93 498 64
2022-05-25 08:06:22 GMT 52.203094 2.876282 35,000 93 497 64
2022-05-25 08:06:19 GMT 52.203461 2.866135 35,000 93 497 64
2022-05-25 08:06:16 GMT 52.204285 2.843733 35,000 93 497 -64
2022-05-25 08:06:13 GMT 52.204704 2.831020 35,000 93 497 -64
2022-05-25 08:06:10 GMT 52.204704 2.831020 35,000 93 497 -64
2022-05-25 08:06:07 GMT 52.205124 2.819092 35,000 93 497 -64
2022-05-25 08:06:04 GMT 52.205521 2.807846 35,000 93 497 64
2022-05-25 08:06:01 GMT 52.205841 2.798538 35,000 93 497 64
2022-05-25 08:05:57 GMT 52.206345 2.783966 35,000 93 496 0
2022-05-25 08:05:54 GMT 52.206703 2.772792 35,000 93 496 64
2022-05-25 08:05:51 GMT 52.207123 2.761257 35,000 93 496 64
2022-05-25 08:05:48 GMT 52.207672 2.745590 35,000 93 496 64
2022-05-25 08:05:45 GMT 52.207916 2.738107 35,000 93 496 64
2022-05-25 08:05:42 GMT 52.208679 2.716141 35,000 93 496 64
2022-05-25 08:05:39 GMT 52.208679 2.716141 35,000 92 496 -64
2022-05-25 08:05:36 GMT 52.209183 2.701950 35,000 93 496 0
2022-05-25 08:05:32 GMT 52.209545 2.690081 35,000 93 496 0
2022-05-25 08:05:29 GMT 52.209915 2.678467 35,000 88 491 0
2022-05-25 08:05:25 GMT 52.210281 2.663574 35,000 91 495 -64
2022-05-25 08:05:22 GMT 52.210476 2.653198 35,000 88 491 0
2022-05-25 08:05:19 GMT 52.210522 2.642447 35,000 88 491 0
2022-05-25 08:05:15 GMT 52.210327 2.622528 35,000 88 491 0
2022-05-25 08:05:12 GMT 52.210190 2.613297 35,000 88 491 0
2022-05-25 08:05:09 GMT 52.210056 2.603681 35,000 88 491 0
2022-05-25 08:05:06 GMT 52.209915 2.592616 35,000 88 491 0
2022-05-25 08:05:03 GMT 52.209732 2.577863 35,000 88 491 0
2022-05-25 08:05:00 GMT 52.209545 2.564915 35,000 88 491 0
2022-05-25 08:04:58 GMT 52.209545 2.564915 35,000 88 491 0
2022-05-25 08:04:54 GMT 52.209358 2.549770 35,000 88 491 0
2022-05-25 08:04:51 GMT 52.209091 2.529526 35,000 88 491 0
2022-05-25 08:04:48 GMT 52.209091 2.529526 35,000 88 491 0
2022-05-25 08:04:45 GMT 52.208862 2.515106 35,000 88 491 0
2022-05-25 08:04:42 GMT 52.208660 2.501116 35,000 88 492 0
2022-05-25 08:04:39 GMT 52.208569 2.493347 35,000 88 492 0
2022-05-25 08:04:37 GMT 52.208496 2.485580 35,000 88 492 0
2022-05-25 08:04:35 GMT 52.208359 2.476349 35,000 88 492 0
2022-05-25 08:04:32 GMT 52.208103 2.454110 35,000 88 492 0
2022-05-25 08:04:29 GMT 52.208103 2.454110 35,000 88 493 0
2022-05-25 08:04:26 GMT 52.208038 2.448196 35,000 88 493 0
2022-05-25 08:04:23 GMT 52.207916 2.435669 35,000 88 493 0
2022-05-25 08:04:20 GMT 52.207729 2.422721 35,000 88 493 0
2022-05-25 08:04:17 GMT 52.207489 2.400818 35,000 88 493 0
2022-05-25 08:04:14 GMT 52.207489 2.400818 35,000 88 493 0
2022-05-25 08:04:11 GMT 52.207355 2.386074 35,000 88 493 -64
2022-05-25 08:04:08 GMT 52.207264 2.380110 35,000 88 493 -64
2022-05-25 08:04:06 GMT 52.207077 2.362296 35,000 88 494 -64
2022-05-25 08:04:03 GMT 52.207077 2.362296 35,000 88 493 -64
2022-05-25 08:04:00 GMT 52.206894 2.347488 35,000 88 493 0
2022-05-25 08:03:57 GMT 52.206802 2.340851 35,000 88 493 0
2022-05-25 08:03:55 GMT 52.206711 2.331543 35,000 88 494 0
2022-05-25 08:03:52 GMT 52.206528 2.315598 35,000 89 494 0
2022-05-25 08:03:49 GMT 52.206436 2.307816 35,000 88 494 0
2022-05-25 08:03:46 GMT 52.206299 2.295609 35,000 88 497 0
2022-05-25 08:03:44 GMT 52.206192 2.287040 35,000 89 494 0
2022-05-25 08:03:41 GMT 52.206070 2.275162 35,000 89 496 0
2022-05-25 08:03:38 GMT 52.206005 2.267735 35,000 89 495 0
2022-05-25 08:03:36 GMT 52.205914 2.256199 35,000 89 495 0
2022-05-25 08:03:33 GMT 52.205868 2.251020 35,000 89 495 0
2022-05-25 08:03:30 GMT 52.205727 2.236503 35,000 89 495 0
2022-05-25 08:03:27 GMT 52.205658 2.227631 35,000 89 495 0
2022-05-25 08:03:24 GMT 52.205448 2.202680 35,000 89 495 0
2022-05-25 08:03:21 GMT 52.205448 2.202680 35,000 89 496 0
2022-05-25 08:03:18 GMT 52.205338 2.192612 35,000 89 495 0
2022-05-25 08:03:15 GMT 52.205261 2.183690 35,000 89 496 0
2022-05-25 08:03:13 GMT 52.205170 2.173645 35,000 89 496 0
2022-05-25 08:03:09 GMT 52.205074 2.159127 35,000 89 496 0
2022-05-25 08:03:06 GMT 52.204937 2.148298 35,000 89 496 0
2022-05-25 08:03:03 GMT 52.204796 2.133074 35,000 89 496 0
2022-05-25 08:03:00 GMT 52.204750 2.125227 35,000 89 496 0
2022-05-25 08:02:57 GMT 52.204651 2.116623 35,000 89 496 0
2022-05-25 08:02:55 GMT 52.204559 2.106628 35,000 89 496 0
2022-05-25 08:02:52 GMT 52.204376 2.083086 35,000 89 496 0
2022-05-25 08:02:49 GMT 52.204376 2.083086 35,000 89 496 0
2022-05-25 08:02:46 GMT 52.204285 2.075631 35,000 89 497 0
2022-05-25 08:02:43 GMT 52.204193 2.064802 35,000 89 497 0
2022-05-25 08:02:40 GMT 52.204056 2.049942 35,000 89 497 0
2022-05-25 08:02:37 GMT 52.203964 2.042084 35,000 89 497 0
2022-05-25 08:02:35 GMT 52.203873 2.034225 35,000 88 495 0
2022-05-25 08:02:32 GMT 52.203728 2.020857 35,000 85 492 0
2022-05-25 08:02:29 GMT 52.203506 2.009659 35,000 88 496 0
2022-05-25 08:02:27 GMT 52.203354 2.002572 35,000 85 492 0
2022-05-25 08:02:25 GMT 52.203167 1.995510 35,000 86 493 64
2022-05-25 08:02:23 GMT 52.202728 1.984482 35,000 85 492 0
2022-05-25 08:02:20 GMT 52.202282 1.975263 35,000 85 492 0
2022-05-25 08:02:17 GMT 52.201817 1.966003 35,000 85 492 0
2022-05-25 08:02:13 GMT 52.201027 1.949445 35,000 85 492 0
2022-05-25 08:02:10 GMT 52.200073 1.931000 35,000 85 492 0
2022-05-25 08:02:07 GMT 52.200073 1.931000 35,000 85 492 0
2022-05-25 08:02:05 GMT 52.199722 1.923628 35,000 85 492 0
2022-05-25 08:02:02 GMT 52.199070 1.910679 35,000 85 492 0
2022-05-25 08:01:59 GMT 52.197922 1.888199 35,000 85 492 0
2022-05-25 08:01:56 GMT 52.197922 1.888199 35,000 85 492 0
2022-05-25 08:01:53 GMT 52.197254 1.875680 35,000 84 492 0
2022-05-25 08:01:50 GMT 52.196823 1.867142 35,000 88 499 -64
2022-05-25 08:01:47 GMT 52.195484 1.840602 35,000 85 493 0
2022-05-25 08:01:43 GMT 52.195484 1.840602 35,000 87 497 0
2022-05-25 08:01:40 GMT 52.194809 1.819000 35,000 88 499 -64
2022-05-25 08:01:37 GMT 52.194809 1.819000 35,000 88 499 0
2022-05-25 08:01:34 GMT 52.194626 1.808853 35,000 90 501 -192
2022-05-25 08:01:32 GMT 52.194508 1.798383 35,000 94 506 1216
2022-05-25 08:01:30 GMT 52.194508 1.794617 35,000 94 506 1216
2022-05-25 08:01:27 GMT 52.194553 1.781433 35,000 91 503 -64
2022-05-25 08:01:25 GMT 52.194927 1.761815 35,000 92 504 384
2022-05-25 08:01:22 GMT 52.194927 1.761815 35,000 92 504 512
2022-05-25 08:01:20 GMT 52.195267 1.750412 34,850 94 506 1216
2022-05-25 08:01:17 GMT 52.195580 1.743216 34,900 94 506 1216
2022-05-25 08:01:15 GMT 52.195904 1.735291 34,775 96 509 1216
2022-05-25 08:01:12 GMT 52.196556 1.723519 34,800 96 509 1216
2022-05-25 08:01:09 GMT 52.197372 1.711349 34,750 97 511 1216
2022-05-25 08:01:07 GMT 52.198837 1.693072 34,450 99 516 1344
2022-05-25 08:01:04 GMT 52.198837 1.693072 34,575 99 515 1216
2022-05-25 08:01:01 GMT 52.199863 1.682713 34,575 99 515 1216
2022-05-25 08:00:58 GMT 52.200806 1.673203 34,350 99 515 1216
2022-05-25 08:00:55 GMT 52.202408 1.657944 34,425 99 516 1344
2022-05-25 08:00:52 GMT 52.203690 1.645279 34,400 99 516 0
2022-05-25 08:00:49 GMT 52.204834 1.633835 34,350 99 516 1344
2022-05-25 08:00:46 GMT 52.205772 1.624643 33,650 99 518 1344
2022-05-25 08:00:44 GMT 52.206474 1.618129 34,250 99 517 1408
2022-05-25 08:00:41 GMT 52.208542 1.597443 34,125 99 516 1344
2022-05-25 08:00:39 GMT 52.208542 1.597443 34,075 99 516 1344
2022-05-25 08:00:36 GMT 52.210056 1.582894 34,025 99 517 1408
2022-05-25 08:00:33 GMT 52.211826 1.565238 33,850 99 518 1408
2022-05-25 08:00:30 GMT 52.211826 1.565238 33,825 99 517 1408
2022-05-25 08:00:27 GMT 52.214264 1.541061 33,725 99 518 1344
2022-05-25 08:00:24 GMT 52.214264 1.541061 33,275 99 518 1344
2022-05-25 08:00:22 GMT 52.216141 1.522217 33,725 99 518 1344
2022-05-25 08:00:19 GMT 52.217087 1.512974 33,650 99 518 1408
2022-05-25 08:00:17 GMT 52.217087 1.512974 33,625 99 519 1408
2022-05-25 08:00:15 GMT 52.217651 1.507187 33,575 99 519 1408
2022-05-25 08:00:13 GMT 52.218521 1.498337 33,525 99 519 1408
2022-05-25 08:00:11 GMT 52.219299 1.490631 33,375 99 519 1344
2022-05-25 08:00:08 GMT 52.220531 1.478289 33,300 99 520 1280
2022-05-25 08:00:05 GMT 52.221836 1.465576 32,850 99 519 1024
2022-05-25 08:00:02 GMT 52.222813 1.455532 33,300 99 520 1280
2022-05-25 07:59:59 GMT 52.224068 1.442819 33,225 99 520 1088
2022-05-25 07:59:56 GMT 52.224953 1.433951 33,025 99 519 1024
2022-05-25 07:59:54 GMT 52.225891 1.424637 32,875 99 519 1408
2022-05-25 07:59:52 GMT 52.226669 1.416931 33,100 99 519 1280
2022-05-25 07:59:48 GMT 52.228306 1.400364 32,750 99 520 1536
2022-05-25 07:59:45 GMT 52.229416 1.389160 32,925 99 520 1536
2022-05-25 07:59:43 GMT 52.231567 1.367569 32,825 99 520 1472
2022-05-25 07:59:40 GMT 52.231567 1.367569 32,725 99 521 1408
2022-05-25 07:59:37 GMT 52.232208 1.360931 32,725 99 521 1408
2022-05-25 07:59:35 GMT 52.233215 1.350479 32,675 99 521 1408
2022-05-25 07:59:33 GMT 52.233994 1.342773 32,575 99 521 1408
2022-05-25 07:59:30 GMT 52.235092 1.331558 32,400 99 522 1408
2022-05-25 07:59:27 GMT 52.236172 1.320714 32,450 99 521 1408
2022-05-25 07:59:24 GMT 52.237431 1.307922 32,425 99 522 1408
2022-05-25 07:59:22 GMT 52.238159 1.300201 32,375 99 522 1408
2022-05-25 07:59:19 GMT 52.239246 1.289324 32,275 99 522 1408
2022-05-25 07:59:16 GMT 52.240501 1.276533 32,225 99 522 1408
2022-05-25 07:59:14 GMT 52.241013 1.271040 32,100 99 522 1472
2022-05-25 07:59:11 GMT 52.242645 1.254349 32,025 99 523 1408
2022-05-25 07:59:08 GMT 52.243561 1.245041 31,875 99 523 1408
2022-05-25 07:59:05 GMT 52.244431 1.236115 31,975 99 523 1408
2022-05-25 07:59:02 GMT 52.246124 1.218643 31,875 99 523 1408
2022-05-25 07:58:59 GMT 52.246765 1.212006 31,725 99 523 1408
2022-05-25 07:58:56 GMT 52.248734 1.191406 31,725 98 523 1408
2022-05-25 07:58:53 GMT 52.250092 1.177420 31,675 98 523 1408
2022-05-25 07:58:50 GMT 52.250092 1.177420 31,625 98 524 1280
2022-05-25 07:58:48 GMT 52.251118 1.166905 31,500 98 523 1088
2022-05-25 07:58:45 GMT 52.253025 1.147051 31,500 98 523 960
2022-05-25 07:58:42 GMT 52.253025 1.147051 31,425 98 522 832
2022-05-25 07:58:39 GMT 52.255539 1.120998 31,425 98 521 960
2022-05-25 07:58:36 GMT 52.255539 1.120998 31,375 98 521 960
2022-05-25 07:58:33 GMT 52.257496 1.100516 31,300 98 521 960
2022-05-25 07:58:30 GMT 52.257496 1.100516 31,300 98 520 896
2022-05-25 07:58:28 GMT 52.258427 1.090864 31,175 98 517 832
2022-05-25 07:58:25 GMT 52.259357 1.081133 31,175 98 517 832
2022-05-25 07:58:23 GMT 52.260406 1.070328 31,150 98 518 896
2022-05-25 07:58:21 GMT 52.261078 1.063006 31,150 98 518 896
2022-05-25 07:58:18 GMT 52.262009 1.053432 31,100 98 518 832
2022-05-25 07:58:15 GMT 52.264057 1.031852 31,000 98 516 832
2022-05-25 07:58:13 GMT 52.264057 1.031852 31,000 98 516 832
2022-05-25 07:58:10 GMT 52.264942 1.022670 30,950 98 516 832
2022-05-25 07:58:07 GMT 52.266220 1.008835 30,950 98 515 960
2022-05-25 07:58:04 GMT 52.267136 0.999222 30,875 98 513 960
2022-05-25 07:58:01 GMT 52.268246 0.987749 30,850 98 513 960
2022-05-25 07:57:58 GMT 52.269333 0.976257 30,825 98 512 832
2022-05-25 07:57:55 GMT 52.270432 0.964432 30,775 98 512 832
2022-05-25 07:57:53 GMT 52.272392 0.943883 30,700 98 511 960
2022-05-25 07:57:49 GMT 52.272392 0.943883 30,700 98 511 960
2022-05-25 07:57:46 GMT 52.273834 0.928659 30,625 98 510 1152
2022-05-25 07:57:43 GMT 52.275696 0.908491 30,575 98 509 1024
2022-05-25 07:57:40 GMT 52.275696 0.908491 30,500 98 509 896
2022-05-25 07:57:37 GMT 52.276978 0.894852 30,475 98 508 768
2022-05-25 07:57:34 GMT 52.278069 0.883458 30,450 98 507 832
2022-05-25 07:57:31 GMT 52.278992 0.873642 30,400 98 507 1088
2022-05-25 07:57:28 GMT 52.280491 0.857797 30,325 98 507 1152
2022-05-25 07:57:25 GMT 52.281933 0.842730 30,275 98 506 1088
2022-05-25 07:57:23 GMT 52.281933 0.842730 30,200 98 506 960
2022-05-25 07:57:20 GMT 52.282791 0.833282 30,225 98 506 896
2022-05-25 07:57:18 GMT 52.283516 0.825701 30,075 98 505 768
2022-05-25 07:57:15 GMT 52.284576 0.814438 30,150 98 503 1024
2022-05-25 07:57:13 GMT 52.285378 0.806161 30,075 98 503 1024
2022-05-25 07:57:10 GMT 52.287148 0.787092 30,075 98 503 1088
2022-05-25 07:57:08 GMT 52.287148 0.787092 30,025 98 502 1152
2022-05-25 07:57:05 GMT 52.288219 0.776184 29,900 98 501 1280
2022-05-25 07:57:02 GMT 52.289383 0.763864 29,900 98 502 1216
2022-05-25 07:56:59 GMT 52.290298 0.754089 29,850 98 502 1280
2022-05-25 07:56:57 GMT 52.290825 0.748483 29,800 98 501 1280
2022-05-25 07:56:54 GMT 52.292862 0.727234 29,700 98 501 1216
2022-05-25 07:56:52 GMT 52.292862 0.727234 29,625 98 502 1216
2022-05-25 07:56:49 GMT 52.294189 0.713425 29,625 98 500 1152
2022-05-25 07:56:46 GMT 52.295246 0.702262 29,550 98 500 1152
2022-05-25 07:56:43 GMT 52.296066 0.694046 29,525 98 499 1152
2022-05-25 07:56:41 GMT 52.296707 0.687332 29,475 98 499 1152
2022-05-25 07:56:38 GMT 52.298134 0.672442 29,425 98 499 1216
2022-05-25 07:56:35 GMT 52.298813 0.665054 29,225 98 498 1216
2022-05-25 07:56:33 GMT 52.299671 0.656119 29,325 98 498 1216
2022-05-25 07:56:31 GMT 52.300598 0.646515 29,275 98 497 1216
2022-05-25 07:56:28 GMT 52.301437 0.637992 29,200 98 497 1216
2022-05-25 07:56:25 GMT 52.302521 0.626831 29,050 98 497 1216
2022-05-25 07:56:22 GMT 52.303619 0.615005 29,075 98 497 1216
2022-05-25 07:56:19 GMT 52.304790 0.602836 29,000 98 496 1280
2022-05-25 07:56:16 GMT 52.305954 0.590973 28,975 98 496 1344
2022-05-25 07:56:13 GMT 52.307053 0.579147 28,875 98 494 1344
2022-05-25 07:56:10 GMT 52.308189 0.567365 28,800 98 494 1280
2022-05-25 07:56:07 GMT 52.308701 0.561829 28,800 98 494 1280
2022-05-25 07:56:05 GMT 52.310284 0.545314 28,725 98 493 1280
2022-05-25 07:56:03 GMT 52.310284 0.545314 28,700 98 493 1280
2022-05-25 07:56:01 GMT 52.311821 0.528756 28,625 98 493 1344
2022-05-25 07:55:58 GMT 52.311821 0.528756 28,575 98 492 1344
2022-05-25 07:55:56 GMT 52.312843 0.517378 28,325 98 491 1344
2022-05-25 07:55:53 GMT 52.314331 0.501251 28,425 98 492 1344
2022-05-25 07:55:51 GMT 52.314331 0.501251 28,400 98 491 1408
2022-05-25 07:55:48 GMT 52.315266 0.490932 28,350 98 491 1344
2022-05-25 07:55:45 GMT 52.317173 0.469744 28,225 98 490 1472
2022-05-25 07:55:42 GMT 52.317173 0.469744 28,225 98 490 1472
2022-05-25 07:55:39 GMT 52.318569 0.454049 28,075 98 489 1408
2022-05-25 07:55:36 GMT 52.319229 0.446777 28,075 98 489 1344
2022-05-25 07:55:33 GMT 52.320202 0.435765 28,025 98 487 1344
2022-05-25 07:55:31 GMT 52.320850 0.428859 27,950 98 488 1344
2022-05-25 07:55:28 GMT 52.322575 0.409555 27,875 98 487 1344
2022-05-25 07:55:26 GMT 52.322575 0.409555 27,775 98 487 1344
2022-05-25 07:55:23 GMT 52.323486 0.399399 27,800 98 487 1344
2022-05-25 07:55:21 GMT 52.324249 0.390721 27,725 98 486 1408
2022-05-25 07:55:18 GMT 52.325134 0.381317 27,600 98 486 1408
2022-05-25 07:55:15 GMT 52.326050 0.370789 27,575 98 485 1408
2022-05-25 07:55:13 GMT 52.326717 0.363569 27,475 98 485 1408
2022-05-25 07:55:10 GMT 52.328114 0.347953 27,325 98 485 1408
2022-05-25 07:55:07 GMT 52.328888 0.339279 27,400 98 484 1408
2022-05-25 07:55:04 GMT 52.329666 0.330276 27,350 98 483 1536
2022-05-25 07:55:01 GMT 52.330673 0.319467 27,225 98 483 1536
2022-05-25 07:54:58 GMT 52.331635 0.308685 27,200 98 483 1536
2022-05-25 07:54:56 GMT 52.332489 0.298985 27,050 98 482 1344
2022-05-25 07:54:53 GMT 52.333187 0.291373 27,075 98 482 1344
2022-05-25 07:54:51 GMT 52.334976 0.270920 26,975 98 481 1280
2022-05-25 07:54:48 GMT 52.334976 0.270920 26,975 98 481 1280
2022-05-25 07:54:45 GMT 52.336075 0.258728 26,775 98 478 1536
2022-05-25 07:54:42 GMT 52.336853 0.250168 26,825 98 478 1472
2022-05-25 07:54:39 GMT 52.337677 0.241241 26,725 98 478 1536
2022-05-25 07:54:36 GMT 52.338634 0.230477 26,725 98 478 1536
2022-05-25 07:54:34 GMT 52.339279 0.223007 26,600 98 478 1536
2022-05-25 07:54:32 GMT 52.339966 0.215530 26,600 98 477 1536
2022-05-25 07:54:30 GMT 52.340744 0.206604 26,500 98 476 1408
2022-05-25 07:54:27 GMT 52.341942 0.193124 26,425 98 476 1344
2022-05-25 07:54:23 GMT 52.342621 0.185318 26,350 98 473 1536
2022-05-25 07:54:21 GMT 52.343243 0.177822 26,325 98 474 1408
2022-05-25 07:54:19 GMT 52.343948 0.170059 26,275 98 473 1536
2022-05-25 07:54:16 GMT 52.345276 0.154800 24,775 98 469 1664
2022-05-25 07:54:13 GMT 52.345734 0.149841 26,100 98 472 1536
2022-05-25 07:54:11 GMT 52.346466 0.141068 26,100 98 472 1536
2022-05-25 07:54:09 GMT 52.347107 0.133955 25,975 98 472 1600
2022-05-25 07:54:06 GMT 52.347885 0.124817 25,950 98 471 1664
2022-05-25 07:54:04 GMT 52.348663 0.116043 25,875 98 471 1664
2022-05-25 07:54:02 GMT 52.349342 0.108294 25,675 98 470 1664
2022-05-25 07:54:00 GMT 52.349758 0.103350 25,800 98 470 1664
2022-05-25 07:53:57 GMT 52.350880 0.090716 25,675 98 469 1664
2022-05-25 07:53:55 GMT 52.351273 0.086136 25,675 98 469 1664
2022-05-25 07:53:53 GMT 52.351948 0.078395 25,550 98 469 1728
2022-05-25 07:53:51 GMT 52.352875 0.067902 25,500 98 469 1728
2022-05-25 07:53:48 GMT 52.353516 0.060577 25,350 97 468 1728
2022-05-25 07:53:45 GMT 52.354431 0.050430 25,275 96 467 1728
2022-05-25 07:53:43 GMT 52.355160 0.040963 25,250 95 466 1728
2022-05-25 07:53:40 GMT 52.355896 0.030441 25,175 95 466 1728
2022-05-25 07:53:37 GMT 52.356537 0.019608 24,950 93 462 1664
2022-05-25 07:53:34 GMT 52.357040 0.008774 24,950 93 461 1664
2022-05-25 07:53:31 GMT 52.357224 0.003891 24,925 93 462 1664
2022-05-25 07:53:29 GMT 52.357628 -0.007220 24,875 93 461 1664
2022-05-25 07:53:26 GMT 52.358139 -0.019775 24,725 93 461 1664
2022-05-25 07:53:23 GMT 52.358368 -0.026398 24,650 93 460 1728
2022-05-25 07:53:20 GMT 52.358887 -0.040257 24,450 93 460 1792
2022-05-25 07:53:17 GMT 52.359192 -0.047913 24,450 93 460 1792
2022-05-25 07:53:14 GMT 52.359489 -0.056893 24,450 93 459 1792
2022-05-25 07:53:12 GMT 52.359818 -0.064584 24,400 93 459 1856
2022-05-25 07:53:09 GMT 52.360329 -0.079102 24,275 93 458 1792
2022-05-25 07:53:06 GMT 52.360607 -0.085615 24,175 93 458 1792
2022-05-25 07:53:04 GMT 52.361164 -0.101859 23,975 93 457 1856
2022-05-25 07:53:01 GMT 52.361481 -0.110168 24,050 93 457 1856
2022-05-25 07:52:59 GMT 52.361481 -0.110168 23,950 93 457 1792
2022-05-25 07:52:56 GMT 52.361801 -0.118790 23,950 93 456 1728
2022-05-25 07:52:54 GMT 52.362099 -0.126971 23,825 93 455 1664
2022-05-25 07:52:51 GMT 52.362469 -0.137643 23,750 93 455 1664
2022-05-25 07:52:49 GMT 52.362701 -0.143842 23,675 93 453 1792
2022-05-25 07:52:46 GMT 52.363121 -0.154829 23,650 93 454 1664
2022-05-25 07:52:44 GMT 52.363815 -0.173950 23,425 93 452 1792
2022-05-25 07:52:41 GMT 52.364143 -0.183472 23,425 93 452 1792
2022-05-25 07:52:38 GMT 52.364143 -0.183472 23,375 93 451 1664
2022-05-25 07:52:35 GMT 52.364517 -0.194066 23,300 93 450 1536
2022-05-25 07:52:32 GMT 52.364822 -0.201492 23,250 93 450 1536
2022-05-25 07:52:30 GMT 52.365051 -0.208664 23,200 93 449 1536
2022-05-25 07:52:28 GMT 52.365261 -0.213763 23,075 93 448 1664
2022-05-25 07:52:25 GMT 52.365738 -0.227280 22,950 93 447 1792
2022-05-25 07:52:22 GMT 52.366287 -0.242405 22,900 93 445 1792
2022-05-25 07:52:20 GMT 52.366287 -0.242405 22,700 93 446 1856
2022-05-25 07:52:18 GMT 52.366657 -0.252842 22,800 93 446 1792
2022-05-25 07:52:15 GMT 52.366928 -0.261230 22,700 93 444 1984
2022-05-25 07:52:12 GMT 52.367249 -0.270996 22,675 93 444 1984
2022-05-25 07:52:10 GMT 52.367451 -0.276385 22,625 93 444 1920
2022-05-25 07:52:08 GMT 52.367775 -0.285095 22,475 93 443 1984
2022-05-25 07:52:05 GMT 52.368118 -0.295715 22,400 93 442 2048
2022-05-25 07:52:02 GMT 52.368427 -0.303772 22,375 93 443 2048
2022-05-25 07:52:00 GMT 52.368668 -0.311127 22,250 93 441 2048
2022-05-25 07:51:58 GMT 52.368847 -0.316092 22,175 93 441 2048
2022-05-25 07:51:55 GMT 52.369591 -0.337437 21,925 93 440 2048
2022-05-25 07:51:52 GMT 52.369591 -0.337437 21,950 93 441 2048
2022-05-25 07:51:50 GMT 52.370178 -0.354004 21,625 93 440 2112
2022-05-25 07:51:47 GMT 52.370499 -0.364304 21,750 93 439 2112
2022-05-25 07:51:44 GMT 52.370499 -0.364304 21,700 93 439 2176
2022-05-25 07:51:42 GMT 52.370754 -0.370946 21,625 93 439 2176
2022-05-25 07:51:39 GMT 52.371082 -0.381226 21,475 93 438 2176
2022-05-25 07:51:36 GMT 52.371407 -0.389465 21,350 93 438 2304
2022-05-25 07:51:33 GMT 52.372147 -0.411606 21,025 93 437 2304
2022-05-25 07:51:30 GMT 52.372147 -0.411606 21,025 93 437 2304
2022-05-25 07:51:27 GMT 52.372478 -0.420855 21,025 93 437 2304
2022-05-25 07:51:24 GMT 52.372849 -0.431056 20,875 93 437 2304
2022-05-25 07:51:21 GMT 52.373108 -0.438919 20,850 93 436 2304
2022-05-25 07:51:19 GMT 52.373337 -0.444870 20,800 93 436 2240
2022-05-25 07:51:16 GMT 52.373749 -0.457077 20,650 93 436 2304
2022-05-25 07:51:13 GMT 52.374115 -0.467224 20,150 93 435 2432
2022-05-25 07:51:10 GMT 52.374481 -0.477121 20,400 93 435 2432
2022-05-25 07:51:07 GMT 52.374802 -0.486908 20,225 93 435 2368
2022-05-25 07:51:04 GMT 52.375084 -0.494777 19,850 93 433 2304
2022-05-25 07:51:02 GMT 52.375397 -0.503998 19,875 93 433 2304
2022-05-25 07:50:59 GMT 52.375671 -0.510864 20,000 93 434 2240
2022-05-25 07:50:57 GMT 52.375877 -0.517064 19,850 93 433 2368
2022-05-25 07:50:54 GMT 52.376247 -0.527893 19,775 93 432 2368
2022-05-25 07:50:52 GMT 52.376587 -0.537643 19,650 93 432 2368
2022-05-25 07:50:49 GMT 52.376862 -0.545807 19,375 93 431 2368
2022-05-25 07:50:46 GMT 52.377228 -0.555954 19,475 93 432 2368
2022-05-25 07:50:43 GMT 52.377502 -0.564041 19,075 93 431 2368
2022-05-25 07:50:41 GMT 52.377686 -0.569916 19,350 93 431 2368
2022-05-25 07:50:39 GMT 52.378017 -0.579686 19,250 93 430 2304
2022-05-25 07:50:36 GMT 52.378281 -0.588150 19,075 93 430 2304
2022-05-25 07:50:33 GMT 52.378555 -0.596237 18,950 93 430 2304
2022-05-25 07:50:31 GMT 52.378902 -0.605974 18,875 93 428 2176
2022-05-25 07:50:28 GMT 52.379044 -0.610526 18,875 93 428 2176
2022-05-25 07:50:26 GMT 52.379368 -0.620571 18,700 93 428 2176
2022-05-25 07:50:23 GMT 52.379700 -0.630875 18,600 92 427 2112
2022-05-25 07:50:20 GMT 52.380112 -0.644684 18,500 92 426 2112
2022-05-25 07:50:18 GMT 52.380112 -0.644684 18,350 92 425 2112
2022-05-25 07:50:15 GMT 52.380478 -0.655289 18,275 92 421 1856
2022-05-25 07:50:12 GMT 52.380661 -0.661087 18,275 92 424 2048
2022-05-25 07:50:10 GMT 52.380936 -0.670319 18,125 92 423 1984
2022-05-25 07:50:07 GMT 52.381622 -0.692596 17,900 92 419 1792
2022-05-25 07:50:04 GMT 52.381622 -0.692596 17,925 92 420 1792
2022-05-25 07:50:01 GMT 52.381836 -0.700221 17,850 92 418 1856
2022-05-25 07:49:58 GMT 52.382114 -0.708775 17,725 92 416 2048
2022-05-25 07:49:55 GMT 52.382401 -0.718231 17,350 92 415 2112
2022-05-25 07:49:52 GMT 52.382717 -0.728551 17,275 92 414 2112
2022-05-25 07:49:49 GMT 52.382954 -0.736398 17,325 92 413 1984
2022-05-25 07:49:47 GMT 52.383133 -0.742645 17,375 92 413 1920
2022-05-25 07:49:44 GMT 52.383511 -0.754447 17,150 92 411 1920
2022-05-25 07:49:41 GMT 52.383636 -0.759430 17,175 92 410 1984
2022-05-25 07:49:38 GMT 52.384048 -0.772095 17,025 92 407 2560
2022-05-25 07:49:36 GMT 52.384209 -0.777911 16,975 92 408 2560
2022-05-25 07:49:33 GMT 52.384487 -0.786229 16,850 92 407 2560
2022-05-25 07:49:30 GMT 52.384720 -0.795175 16,775 92 407 2496
2022-05-25 07:49:27 GMT 52.385048 -0.805926 16,575 92 406 2368
2022-05-25 07:49:24 GMT 52.385239 -0.812683 16,450 92 405 2432
2022-05-25 07:49:21 GMT 52.385559 -0.823364 16,225 92 405 2496
2022-05-25 07:49:18 GMT 52.385788 -0.830994 16,225 92 403 2752
2022-05-25 07:49:16 GMT 52.386024 -0.838021 16,100 92 403 2880
2022-05-25 07:49:13 GMT 52.386398 -0.849871 16,000 92 403 3200
2022-05-25 07:49:10 GMT 52.386536 -0.855678 15,900 92 403 3200
2022-05-25 07:49:08 GMT 52.386768 -0.863290 15,675 92 403 3136
2022-05-25 07:49:05 GMT 52.387070 -0.873642 15,525 92 404 3072
2022-05-25 07:49:02 GMT 52.387329 -0.881810 15,400 92 404 2880
2022-05-25 07:48:59 GMT 52.387608 -0.891305 15,300 92 404 2816
2022-05-25 07:48:57 GMT 52.387794 -0.897112 15,225 92 404 2624
2022-05-25 07:48:55 GMT 52.388031 -0.904999 15,100 92 403 2368
2022-05-25 07:48:52 GMT 52.388168 -0.909882 15,050 92 403 2304
2022-05-25 07:48:50 GMT 52.388443 -0.918655 14,825 92 401 2368
2022-05-25 07:48:47 GMT 52.388680 -0.925912 14,850 93 399 2944
2022-05-25 07:48:45 GMT 52.389175 -0.941315 14,675 92 382 2304
2022-05-25 07:48:42 GMT 52.389175 -0.941315 14,625 93 399 2944
2022-05-25 07:48:38 GMT 52.389496 -0.951920 14,400 93 397 1344
2022-05-25 07:48:36 GMT 52.389771 -0.959396 14,350 93 395 1216
2022-05-25 07:48:33 GMT 52.390091 -0.968704 14,300 93 391 2688
2022-05-25 07:48:30 GMT 52.390366 -0.977097 14,250 93 391 2240
2022-05-25 07:48:27 GMT 52.390678 -0.986808 14,125 93 391 2560
2022-05-25 07:48:24 GMT 52.391006 -0.995126 13,950 93 391 2624
2022-05-25 07:48:21 GMT 52.391281 -1.003952 13,875 93 390 2368
2022-05-25 07:48:18 GMT 52.391891 -1.020787 13,550 93 390 2560
2022-05-25 07:48:15 GMT 52.392029 -1.025495 13,625 93 390 2560
2022-05-25 07:48:13 GMT 52.392426 -1.038132 13,425 93 389 2624
2022-05-25 07:48:10 GMT 52.392426 -1.038132 13,325 92 386 2496
2022-05-25 07:48:07 GMT 52.392727 -1.046919 13,250 92 387 2240
2022-05-25 07:48:04 GMT 52.393021 -1.055374 12,975 92 386 2688
2022-05-25 07:48:01 GMT 52.393192 -1.061829 13,050 92 385 2304
2022-05-25 07:47:58 GMT 52.393566 -1.074620 12,825 92 386 2624
2022-05-25 07:47:55 GMT 52.393753 -1.079878 12,800 92 386 2560
2022-05-25 07:47:53 GMT 52.393936 -1.088028 12,675 92 385 2304
2022-05-25 07:47:50 GMT 52.394310 -1.102007 12,625 92 384 2240
2022-05-25 07:47:48 GMT 52.394310 -1.102007 12,300 92 382 2240
2022-05-25 07:47:45 GMT 52.394669 -1.116180 12,325 92 382 2240
2022-05-25 07:47:43 GMT 52.394669 -1.116180 12,325 92 382 2240
2022-05-25 07:47:40 GMT 52.394871 -1.122567 12,175 92 379 1536
2022-05-25 07:47:37 GMT 52.395195 -1.133161 12,100 92 379 1536
2022-05-25 07:47:34 GMT 52.395584 -1.148071 12,025 92 377 1472
2022-05-25 07:47:31 GMT 52.395905 -1.157684 11,925 79 336 1088
2022-05-25 07:47:28 GMT 52.395905 -1.157684 11,900 92 372 1984
2022-05-25 07:47:26 GMT 52.396080 -1.163060 11,850 92 373 1984
2022-05-25 07:47:24 GMT 52.396267 -1.168945 11,725 92 371 1984
2022-05-25 07:47:22 GMT 52.396454 -1.175145 11,625 92 370 1792
2022-05-25 07:47:19 GMT 52.396687 -1.183228 11,575 92 368 1856
2022-05-25 07:47:16 GMT 52.396965 -1.191860 11,550 93 366 1856
2022-05-25 07:47:13 GMT 52.397232 -1.200180 11,425 93 365 1856
2022-05-25 07:47:10 GMT 52.397476 -1.208418 11,325 93 364 1856
2022-05-25 07:47:07 GMT 52.397800 -1.216971 11,200 93 362 1728
2022-05-25 07:47:04 GMT 52.398056 -1.225204 11,125 93 361 1600
2022-05-25 07:47:01 GMT 52.398361 -1.233372 10,950 89 351 960
2022-05-25 07:46:58 GMT 52.398731 -1.242868 11,000 92 357 1216
2022-05-25 07:46:55 GMT 52.398827 -1.248204 10,925 90 354 960
2022-05-25 07:46:52 GMT 52.398918 -1.256757 10,900 75 324 640
2022-05-25 07:46:49 GMT 52.398827 -1.264997 10,850 87 346 960
2022-05-25 07:46:47 GMT 52.398697 -1.271057 10,850 87 346 960
2022-05-25 07:46:44 GMT 52.398453 -1.276219 10,750 83 340 1216
2022-05-25 07:46:41 GMT 52.397896 -1.285714 10,675 82 338 1216
2022-05-25 07:46:38 GMT 52.397141 -1.294327 10,575 78 333 896
2022-05-25 07:46:35 GMT 52.395172 -1.309586 10,600 76 331 640
2022-05-25 07:46:32 GMT 52.393982 -1.316986 10,550 75 319 1280
2022-05-25 07:46:29 GMT 52.393982 -1.316986 10,525 75 318 1600
2022-05-25 07:46:26 GMT 52.393101 -1.322597 10,450 75 318 1600
2022-05-25 07:46:23 GMT 52.392124 -1.328639 10,400 75 316 2304
2022-05-25 07:46:21 GMT 52.391331 -1.333583 10,175 75 317 2688
2022-05-25 07:46:18 GMT 52.389999 -1.341858 10,175 75 316 3008
2022-05-25 07:46:15 GMT 52.389084 -1.347656 10,050 75 316 3008
2022-05-25 07:46:13 GMT 52.388119 -1.353437 9,950 75 317 2496
2022-05-25 07:46:10 GMT 52.387188 -1.359244 9,725 75 315 2368
2022-05-25 07:46:07 GMT 52.386024 -1.366856 9,750 75 315 2368
2022-05-25 07:46:05 GMT 52.385326 -1.371251 9,650 75 315 2368
2022-05-25 07:46:02 GMT 52.384300 -1.377921 9,575 75 315 2304
2022-05-25 07:45:59 GMT 52.383224 -1.384888 9,400 75 313 2752
2022-05-25 07:45:56 GMT 52.382114 -1.391968 9,250 75 313 2944
2022-05-25 07:45:54 GMT 52.381485 -1.396103 9,100 75 313 3008
2022-05-25 07:45:51 GMT 52.380157 -1.404837 8,925 75 315 3200
2022-05-25 07:45:48 GMT 52.378235 -1.417084 8,600 75 315 3136
2022-05-25 07:45:45 GMT 52.378235 -1.417084 8,650 75 317 3200
2022-05-25 07:45:42 GMT 52.376816 -1.426086 8,500 75 317 3264
2022-05-25 07:45:39 GMT 52.375992 -1.431427 8,275 75 317 3264
2022-05-25 07:45:36 GMT 52.374992 -1.437718 8,200 75 320 3264
2022-05-25 07:45:34 GMT 52.374252 -1.442413 8,075 75 320 3264
2022-05-25 07:45:31 GMT 52.373131 -1.449411 7,875 75 321 2816
2022-05-25 07:45:28 GMT 52.372009 -1.456451 7,825 75 321 2752
2022-05-25 07:45:25 GMT 52.369171 -1.473580 7,400 74 322 2560
2022-05-25 07:45:21 GMT 52.369171 -1.473580 7,425 74 319 2624
2022-05-25 07:45:18 GMT 52.367775 -1.482213 7,250 74 320 2560
2022-05-25 07:45:15 GMT 52.367020 -1.486588 7,250 74 319 2624
2022-05-25 07:45:13 GMT 52.366100 -1.492179 7,050 74 319 2752
2022-05-25 07:45:10 GMT 52.365124 -1.497986 7,050 74 319 2752
2022-05-25 07:45:08 GMT 52.364319 -1.502914 6,950 74 319 2688
2022-05-25 07:45:05 GMT 52.362900 -1.511459 6,700 74 317 2624
2022-05-25 07:45:02 GMT 52.361725 -1.518389 6,625 74 317 2624
2022-05-25 07:44:59 GMT 52.360840 -1.523514 6,525 74 316 2752
2022-05-25 07:44:57 GMT 52.360062 -1.528091 6,375 74 315 2944
2022-05-25 07:44:54 GMT 52.358372 -1.537929 6,225 74 315 2624
2022-05-25 07:44:51 GMT 52.357544 -1.542969 6,075 74 315 2240
2022-05-25 07:44:48 GMT 52.354881 -1.558332 6,000 74 314 1792
2022-05-25 07:44:45 GMT 52.354881 -1.558332 5,925 74 313 1536
2022-05-25 07:44:42 GMT 52.354294 -1.561737 5,875 74 312 1472
2022-05-25 07:44:39 GMT 52.353195 -1.568298 5,775 74 310 1856
2022-05-25 07:44:37 GMT 52.352280 -1.573715 5,675 74 308 2176
2022-05-25 07:44:34 GMT 52.350925 -1.581639 5,550 74 307 2368
2022-05-25 07:44:31 GMT 52.349995 -1.586975 5,475 74 306 2368
2022-05-25 07:44:28 GMT 52.348877 -1.593881 5,325 84 298 1152
2022-05-25 07:44:25 GMT 52.347805 -1.601257 5,250 81 301 1216
2022-05-25 07:44:22 GMT 52.347061 -1.609576 5,200 84 298 1152
2022-05-25 07:44:19 GMT 52.346832 -1.614075 5,150 87 295 1152
2022-05-25 07:44:16 GMT 52.346832 -1.622620 5,100 93 288 960
2022-05-25 07:44:12 GMT 52.347248 -1.629037 5,075 98 282 832
2022-05-25 07:44:09 GMT 52.348083 -1.636335 5,025 104 273 960
2022-05-25 07:44:07 GMT 52.348782 -1.640494 4,975 107 268 1280
2022-05-25 07:44:04 GMT 52.349670 -1.644897 4,800 113 261 2048
2022-05-25 07:44:01 GMT 52.351227 -1.650925 4,725 121 254 2496
2022-05-25 07:43:58 GMT 52.352692 -1.655579 4,700 121 254 2496
2022-05-25 07:43:56 GMT 52.354275 -1.659799 4,600 125 251 2496
2022-05-25 07:43:53 GMT 52.356537 -1.664581 4,425 133 244 2496
2022-05-25 07:43:50 GMT 52.358734 -1.668549 4,325 137 241 2496
2022-05-25 07:43:47 GMT 52.361160 -1.671982 4,050 150 228 2304
2022-05-25 07:43:44 GMT 52.363724 -1.674957 4,050 150 228 2304
2022-05-25 07:43:41 GMT 52.369034 -1.679888 3,950 152 225 2304
2022-05-25 07:43:38 GMT 52.369034 -1.679888 3,875 152 224 2304
2022-05-25 07:43:35 GMT 52.372696 -1.682968 3,700 152 221 2368
2022-05-25 07:43:32 GMT 52.374901 -1.684832 3,575 155 217 2368
2022-05-25 07:43:29 GMT 52.377552 -1.686872 3,450 157 216 2368
2022-05-25 07:43:26 GMT 52.379742 -1.688442 3,425 157 216 2368
2022-05-25 07:43:23 GMT 52.385147 -1.691895 3,250 160 211 2432
2022-05-25 07:43:20 GMT 52.385147 -1.691895 3,125 161 209 2624
2022-05-25 07:43:17 GMT 52.388027 -1.693464 3,050 162 208 2752
2022-05-25 07:43:14 GMT 52.391327 -1.695023 2,775 164 207 2560
2022-05-25 07:43:11 GMT 52.393707 -1.696211 2,675 165 204 1920
2022-05-25 07:43:08 GMT 52.399712 -1.698800 2,600 164 196 1152
2022-05-25 07:43:05 GMT 52.402458 -1.699977 2,575 165 198 1088
2022-05-25 07:43:02 GMT 52.402458 -1.699977 2,500 163 195 1088
2022-05-25 07:42:59 GMT 52.407440 -1.702567 2,450 161 192 1408
2022-05-25 07:42:56 GMT 52.407440 -1.702567 2,400 159 186 1472
2022-05-25 07:42:53 GMT 52.409546 -1.703796 2,275 159 186 1536
2022-05-25 07:42:50 GMT 52.412651 -1.705706 2,250 157 182 896
2022-05-25 07:42:47 GMT 52.414047 -1.706569 2,200 157 182 896
2022-05-25 07:42:45 GMT 52.415676 -1.707668 2,175 154 179 832
2022-05-25 07:42:41 GMT 52.419125 -1.710414 2,100 149 176 1152
2022-05-25 07:42:37 GMT 52.421963 -1.713239 2,025 147 172 1536
2022-05-25 07:42:36 GMT 52.422474 -1.713789 2,000 147 171 1536
2022-05-25 07:42:35 GMT 52.423325 -1.714630 1,975 148 170 1344
2022-05-25 07:42:34 GMT 52.424709 -1.716064 1,925 148 167 1472
2022-05-25 07:42:31 GMT 52.425964 -1.717320 1,875 148 167 1472
2022-05-25 07:42:27 GMT 52.428452 -1.719894 1,775 147 164 1280
2022-05-25 07:42:26 GMT 52.428761 -1.720224 1,775 147 164 1344
2022-05-25 07:42:25 GMT 52.429779 -1.721268 1,725 146 162 1536
2022-05-25 07:42:24 GMT 52.430946 -1.722578 1,675 146 160 1984
2022-05-25 07:42:22 GMT 52.431320 -1.722970 1,650 146 160 2048
2022-05-25 07:42:21 GMT 52.432018 -1.723676 1,625 146 160 2240
2022-05-25 07:42:20 GMT 52.433395 -1.725235 1,525 146 160 2496
2022-05-25 07:42:18 GMT 52.433926 -1.725795 1,500 145 160 2496
2022-05-25 07:42:17 GMT 52.434723 -1.726685 1,425 145 159 2560
2022-05-25 07:42:16 GMT 52.435913 -1.727982 1,350 146 159 2688
2022-05-25 07:42:14 GMT 52.436440 -1.728620 1,300 146 159 2752
2022-05-25 07:42:13 GMT 52.437698 -1.729889 1,200 146 160 3264
2022-05-25 07:42:11 GMT 52.438568 -1.730881 1,125 146 160 3328
2022-05-25 07:42:09 GMT 52.440445 -1.732941 950 145 167 3264
2022-05-25 07:42:07 GMT 52.441002 -1.733564 900 146 168 3072
2022-05-25 07:42:06 GMT 52.441750 -1.734349 850 146 168 2624
2022-05-25 07:42:03 GMT 52.443329 -1.736154 750 145 167 2240
2022-05-25 07:42:02 GMT 52.443981 -1.736860 700 145 167 2112
2022-05-25 07:42:01 GMT 52.445053 -1.738116 650 145 165 2112
2022-05-25 07:41:59 GMT 52.445618 -1.738739 625 145 168 1984

Making use of Plane Finder data

You are free to use the raw flight data, aircraft information and images provided in this report for your own purposes provided the data is correctly attributed to Plane Finder. We ask that you please credit Plane Finder and link to planefinder.net in close proximity to the content.

Optionally one of the following logos (no smaller then 150x24px) can be used and must link to planefinder.net

Embedding the Plane Finder map

You are welcome to embed the Plane Finder playback map on your website to offer visitors a more interactive experience. We suggest using the following HTML code:

<iframe src="//planefinder.net/data/report/LS1329-G-GDFX-7700-squawk-2022-05-25/map" width="800" height="600" seamless="seamless"></iframe>

Where our data comes from

Plane Finder has a global network of data feeds and antenna radars that receive data broadcast directly from aircraft. The primary technologies used are ADS-B and MLAT. We also show feeds from the FAA and a FLARM glider feed.

Click here to find out more about the Plane Finder network.

How we collect our data